<?xml version="1.0" encoding="UTF-8" standalone="no" ?>
<gpx xmlns="http://www.topografix.com/GPX/1/1" xmlns:xsi="http://www.w3.org/2001/XMLSchema-instance" xsi:schemaLocation="http://www.topografix.com/GPX/1/1 http://www.topografix.com/GPX/1/1/gpx.xsd" version="1.1" creator="VisuGPX - https://www.visugpx.com">
  <metadata>
    <name>RandO givrée 2011 (circuit court)</name>
    <desc><![CDATA[Randonnée en orientation au parc de Miribel Jonage le 06/02/2011]]></desc>
  </metadata>
  <trk>
    <name><![CDATA[RandoGivrée 06 FEV 2011 09:50]]></name>
    <trkseg>
      <trkpt lat="45.80006" lon="4.94102">
        <ele>59.74</ele>
        <time>2011-02-06T08:50:41Z</time>
      </trkpt>
      <trkpt lat="45.80006" lon="4.94095">
        <ele>59.26</ele>
        <time>2011-02-06T08:51:04Z</time>
      </trkpt>
      <trkpt lat="45.80007" lon="4.94095">
        <ele>59.26</ele>
        <time>2011-02-06T08:51:07Z</time>
      </trkpt>
      <trkpt lat="45.80005" lon="4.94107">
        <ele>56.37</ele>
        <time>2011-02-06T08:51:22Z</time>
      </trkpt>
      <trkpt lat="45.8001" lon="4.94121">
        <ele>53.49</ele>
        <time>2011-02-06T08:51:35Z</time>
      </trkpt>
      <trkpt lat="45.80009" lon="4.94124">
        <ele>53.49</ele>
        <time>2011-02-06T08:51:49Z</time>
      </trkpt>
      <trkpt lat="45.80009" lon="4.94124">
        <ele>53.49</ele>
        <time>2011-02-06T08:52:14Z</time>
      </trkpt>
      <trkpt lat="45.80009" lon="4.94135">
        <ele>53.49</ele>
        <time>2011-02-06T08:52:21Z</time>
      </trkpt>
      <trkpt lat="45.79996" lon="4.94156">
        <ele>53.01</ele>
        <time>2011-02-06T08:52:38Z</time>
      </trkpt>
      <trkpt lat="45.79989" lon="4.94178">
        <ele>53.49</ele>
        <time>2011-02-06T08:52:54Z</time>
      </trkpt>
      <trkpt lat="45.79982" lon="4.94203">
        <ele>53.49</ele>
        <time>2011-02-06T08:53:10Z</time>
      </trkpt>
      <trkpt lat="45.79984" lon="4.94231">
        <ele>53.49</ele>
        <time>2011-02-06T08:53:27Z</time>
      </trkpt>
      <trkpt lat="45.7999" lon="4.94254">
        <ele>53.01</ele>
        <time>2011-02-06T08:53:43Z</time>
      </trkpt>
      <trkpt lat="45.79996" lon="4.94266">
        <ele>53.01</ele>
        <time>2011-02-06T08:53:59Z</time>
      </trkpt>
      <trkpt lat="45.80005" lon="4.94275">
        <ele>53.01</ele>
        <time>2011-02-06T08:54:13Z</time>
      </trkpt>
      <trkpt lat="45.80023" lon="4.94284">
        <ele>53.01</ele>
        <time>2011-02-06T08:54:30Z</time>
      </trkpt>
      <trkpt lat="45.80035" lon="4.94294">
        <ele>53.49</ele>
        <time>2011-02-06T08:54:46Z</time>
      </trkpt>
      <trkpt lat="45.80049" lon="4.94303">
        <ele>53.01</ele>
        <time>2011-02-06T08:55:01Z</time>
      </trkpt>
      <trkpt lat="45.80057" lon="4.94308">
        <ele>53.49</ele>
        <time>2011-02-06T08:55:08Z</time>
      </trkpt>
      <trkpt lat="45.8006" lon="4.94309">
        <ele>53.49</ele>
        <time>2011-02-06T08:55:11Z</time>
      </trkpt>
      <trkpt lat="45.80084" lon="4.94323">
        <ele>53.49</ele>
        <time>2011-02-06T08:55:29Z</time>
      </trkpt>
      <trkpt lat="45.80101" lon="4.94334">
        <ele>53.97</ele>
        <time>2011-02-06T08:55:45Z</time>
      </trkpt>
      <trkpt lat="45.80114" lon="4.9434">
        <ele>54.45</ele>
        <time>2011-02-06T08:56:00Z</time>
      </trkpt>
      <trkpt lat="45.80114" lon="4.9434">
        <ele>53.97</ele>
        <time>2011-02-06T08:56:22Z</time>
      </trkpt>
      <trkpt lat="45.80115" lon="4.94337">
        <ele>53.97</ele>
        <time>2011-02-06T08:56:47Z</time>
      </trkpt>
      <trkpt lat="45.80116" lon="4.94338">
        <ele>53.97</ele>
        <time>2011-02-06T08:57:03Z</time>
      </trkpt>
      <trkpt lat="45.80116" lon="4.94338">
        <ele>53.97</ele>
        <time>2011-02-06T08:57:33Z</time>
      </trkpt>
      <trkpt lat="45.80116" lon="4.94341">
        <ele>53.97</ele>
        <time>2011-02-06T08:57:45Z</time>
      </trkpt>
      <trkpt lat="45.8012" lon="4.94348">
        <ele>53.97</ele>
        <time>2011-02-06T08:57:59Z</time>
      </trkpt>
      <trkpt lat="45.80124" lon="4.94358">
        <ele>53.97</ele>
        <time>2011-02-06T08:58:14Z</time>
      </trkpt>
      <trkpt lat="45.80125" lon="4.94363">
        <ele>53.97</ele>
        <time>2011-02-06T08:58:29Z</time>
      </trkpt>
      <trkpt lat="45.80129" lon="4.94372">
        <ele>53.97</ele>
        <time>2011-02-06T08:58:40Z</time>
      </trkpt>
      <trkpt lat="45.80137" lon="4.94396">
        <ele>53.97</ele>
        <time>2011-02-06T08:58:57Z</time>
      </trkpt>
      <trkpt lat="45.8014" lon="4.94413">
        <ele>53.49</ele>
        <time>2011-02-06T08:59:07Z</time>
      </trkpt>
      <trkpt lat="45.80145" lon="4.94442">
        <ele>53.49</ele>
        <time>2011-02-06T08:59:25Z</time>
      </trkpt>
      <trkpt lat="45.80148" lon="4.94469">
        <ele>53.97</ele>
        <time>2011-02-06T08:59:42Z</time>
      </trkpt>
      <trkpt lat="45.80151" lon="4.94492">
        <ele>53.97</ele>
        <time>2011-02-06T08:59:58Z</time>
      </trkpt>
      <trkpt lat="45.8015" lon="4.94516">
        <ele>53.97</ele>
        <time>2011-02-06T09:00:15Z</time>
      </trkpt>
      <trkpt lat="45.80147" lon="4.94541">
        <ele>53.49</ele>
        <time>2011-02-06T09:00:31Z</time>
      </trkpt>
      <trkpt lat="45.80131" lon="4.94557">
        <ele>53.49</ele>
        <time>2011-02-06T09:00:46Z</time>
      </trkpt>
      <trkpt lat="45.80112" lon="4.94556">
        <ele>53.49</ele>
        <time>2011-02-06T09:01:02Z</time>
      </trkpt>
      <trkpt lat="45.8009" lon="4.94556">
        <ele>53.49</ele>
        <time>2011-02-06T09:01:20Z</time>
      </trkpt>
      <trkpt lat="45.80072" lon="4.94554">
        <ele>53.49</ele>
        <time>2011-02-06T09:01:35Z</time>
      </trkpt>
      <trkpt lat="45.80055" lon="4.9455">
        <ele>53.01</ele>
        <time>2011-02-06T09:01:50Z</time>
      </trkpt>
      <trkpt lat="45.80036" lon="4.94546">
        <ele>53.01</ele>
        <time>2011-02-06T09:02:06Z</time>
      </trkpt>
      <trkpt lat="45.80021" lon="4.94536">
        <ele>53.49</ele>
        <time>2011-02-06T09:02:20Z</time>
      </trkpt>
      <trkpt lat="45.80008" lon="4.9453">
        <ele>53.49</ele>
        <time>2011-02-06T09:02:35Z</time>
      </trkpt>
      <trkpt lat="45.79998" lon="4.94529">
        <ele>53.49</ele>
        <time>2011-02-06T09:02:44Z</time>
      </trkpt>
      <trkpt lat="45.79987" lon="4.94545">
        <ele>53.49</ele>
        <time>2011-02-06T09:02:57Z</time>
      </trkpt>
      <trkpt lat="45.79983" lon="4.94573">
        <ele>53.49</ele>
        <time>2011-02-06T09:03:16Z</time>
      </trkpt>
      <trkpt lat="45.79982" lon="4.94601">
        <ele>54.45</ele>
        <time>2011-02-06T09:03:33Z</time>
      </trkpt>
      <trkpt lat="45.79982" lon="4.94637">
        <ele>54.93</ele>
        <time>2011-02-06T09:03:55Z</time>
      </trkpt>
      <trkpt lat="45.79982" lon="4.94642">
        <ele>54.93</ele>
        <time>2011-02-06T09:04:06Z</time>
      </trkpt>
      <trkpt lat="45.79976" lon="4.94669">
        <ele>54.93</ele>
        <time>2011-02-06T09:04:23Z</time>
      </trkpt>
      <trkpt lat="45.79967" lon="4.94697">
        <ele>54.93</ele>
        <time>2011-02-06T09:04:40Z</time>
      </trkpt>
      <trkpt lat="45.79966" lon="4.94701">
        <ele>54.45</ele>
        <time>2011-02-06T09:04:43Z</time>
      </trkpt>
      <trkpt lat="45.79961" lon="4.94725">
        <ele>54.93</ele>
        <time>2011-02-06T09:04:59Z</time>
      </trkpt>
      <trkpt lat="45.7996" lon="4.9473">
        <ele>54.45</ele>
        <time>2011-02-06T09:05:02Z</time>
      </trkpt>
      <trkpt lat="45.79957" lon="4.94741">
        <ele>54.93</ele>
        <time>2011-02-06T09:05:10Z</time>
      </trkpt>
      <trkpt lat="45.79957" lon="4.94748">
        <ele>55.41</ele>
        <time>2011-02-06T09:05:23Z</time>
      </trkpt>
      <trkpt lat="45.79958" lon="4.94748">
        <ele>54.93</ele>
        <time>2011-02-06T09:05:53Z</time>
      </trkpt>
      <trkpt lat="45.79956" lon="4.94752">
        <ele>55.41</ele>
        <time>2011-02-06T09:06:00Z</time>
      </trkpt>
      <trkpt lat="45.79956" lon="4.94758">
        <ele>54.93</ele>
        <time>2011-02-06T09:06:04Z</time>
      </trkpt>
      <trkpt lat="45.79953" lon="4.9478">
        <ele>55.89</ele>
        <time>2011-02-06T09:06:19Z</time>
      </trkpt>
      <trkpt lat="45.79951" lon="4.94801">
        <ele>55.41</ele>
        <time>2011-02-06T09:06:35Z</time>
      </trkpt>
      <trkpt lat="45.7995" lon="4.9481">
        <ele>55.41</ele>
        <time>2011-02-06T09:06:41Z</time>
      </trkpt>
      <trkpt lat="45.7995" lon="4.94829">
        <ele>55.41</ele>
        <time>2011-02-06T09:06:52Z</time>
      </trkpt>
      <trkpt lat="45.79942" lon="4.94853">
        <ele>55.41</ele>
        <time>2011-02-06T09:07:09Z</time>
      </trkpt>
      <trkpt lat="45.79942" lon="4.94856">
        <ele>55.41</ele>
        <time>2011-02-06T09:07:31Z</time>
      </trkpt>
      <trkpt lat="45.79942" lon="4.94856">
        <ele>55.89</ele>
        <time>2011-02-06T09:07:51Z</time>
      </trkpt>
      <trkpt lat="45.79942" lon="4.94864">
        <ele>55.41</ele>
        <time>2011-02-06T09:08:08Z</time>
      </trkpt>
      <trkpt lat="45.79939" lon="4.94876">
        <ele>55.41</ele>
        <time>2011-02-06T09:08:20Z</time>
      </trkpt>
      <trkpt lat="45.79937" lon="4.94881">
        <ele>55.41</ele>
        <time>2011-02-06T09:08:37Z</time>
      </trkpt>
      <trkpt lat="45.79932" lon="4.94895">
        <ele>54.93</ele>
        <time>2011-02-06T09:08:56Z</time>
      </trkpt>
      <trkpt lat="45.79923" lon="4.94912">
        <ele>54.93</ele>
        <time>2011-02-06T09:09:11Z</time>
      </trkpt>
      <trkpt lat="45.79918" lon="4.94917">
        <ele>54.93</ele>
        <time>2011-02-06T09:09:16Z</time>
      </trkpt>
      <trkpt lat="45.79903" lon="4.94928">
        <ele>55.41</ele>
        <time>2011-02-06T09:09:33Z</time>
      </trkpt>
      <trkpt lat="45.79903" lon="4.94929">
        <ele>54.93</ele>
        <time>2011-02-06T09:09:55Z</time>
      </trkpt>
      <trkpt lat="45.79903" lon="4.94929">
        <ele>55.41</ele>
        <time>2011-02-06T09:10:24Z</time>
      </trkpt>
      <trkpt lat="45.79894" lon="4.94936">
        <ele>54.93</ele>
        <time>2011-02-06T09:10:38Z</time>
      </trkpt>
      <trkpt lat="45.79892" lon="4.94938">
        <ele>54.45</ele>
        <time>2011-02-06T09:10:55Z</time>
      </trkpt>
      <trkpt lat="45.79889" lon="4.94941">
        <ele>54.45</ele>
        <time>2011-02-06T09:10:59Z</time>
      </trkpt>
      <trkpt lat="45.79872" lon="4.94954">
        <ele>53.97</ele>
        <time>2011-02-06T09:11:17Z</time>
      </trkpt>
      <trkpt lat="45.79855" lon="4.94968">
        <ele>53.49</ele>
        <time>2011-02-06T09:11:34Z</time>
      </trkpt>
      <trkpt lat="45.79846" lon="4.94986">
        <ele>53.49</ele>
        <time>2011-02-06T09:11:51Z</time>
      </trkpt>
      <trkpt lat="45.79845" lon="4.94991">
        <ele>53.49</ele>
        <time>2011-02-06T09:12:05Z</time>
      </trkpt>
      <trkpt lat="45.79844" lon="4.94994">
        <ele>53.49</ele>
        <time>2011-02-06T09:12:07Z</time>
      </trkpt>
      <trkpt lat="45.79837" lon="4.95025">
        <ele>53.97</ele>
        <time>2011-02-06T09:12:26Z</time>
      </trkpt>
      <trkpt lat="45.79832" lon="4.95057">
        <ele>53.97</ele>
        <time>2011-02-06T09:12:44Z</time>
      </trkpt>
      <trkpt lat="45.79827" lon="4.95084">
        <ele>53.97</ele>
        <time>2011-02-06T09:13:00Z</time>
      </trkpt>
      <trkpt lat="45.79819" lon="4.95107">
        <ele>54.93</ele>
        <time>2011-02-06T09:13:15Z</time>
      </trkpt>
      <trkpt lat="45.79816" lon="4.95118">
        <ele>55.89</ele>
        <time>2011-02-06T09:13:30Z</time>
      </trkpt>
      <trkpt lat="45.79818" lon="4.95127">
        <ele>56.37</ele>
        <time>2011-02-06T09:13:50Z</time>
      </trkpt>
      <trkpt lat="45.79818" lon="4.95131">
        <ele>55.89</ele>
        <time>2011-02-06T09:13:59Z</time>
      </trkpt>
      <trkpt lat="45.79827" lon="4.95156">
        <ele>55.89</ele>
        <time>2011-02-06T09:14:18Z</time>
      </trkpt>
      <trkpt lat="45.79828" lon="4.95158">
        <ele>55.89</ele>
        <time>2011-02-06T09:14:20Z</time>
      </trkpt>
      <trkpt lat="45.79834" lon="4.95181">
        <ele>55.89</ele>
        <time>2011-02-06T09:14:36Z</time>
      </trkpt>
      <trkpt lat="45.79835" lon="4.95197">
        <ele>55.41</ele>
        <time>2011-02-06T09:14:46Z</time>
      </trkpt>
      <trkpt lat="45.79822" lon="4.95221">
        <ele>55.89</ele>
        <time>2011-02-06T09:15:04Z</time>
      </trkpt>
      <trkpt lat="45.79819" lon="4.95226">
        <ele>55.41</ele>
        <time>2011-02-06T09:15:08Z</time>
      </trkpt>
      <trkpt lat="45.7981" lon="4.95248">
        <ele>55.89</ele>
        <time>2011-02-06T09:15:28Z</time>
      </trkpt>
      <trkpt lat="45.798" lon="4.95265">
        <ele>55.41</ele>
        <time>2011-02-06T09:15:41Z</time>
      </trkpt>
      <trkpt lat="45.7979" lon="4.95288">
        <ele>55.41</ele>
        <time>2011-02-06T09:15:58Z</time>
      </trkpt>
      <trkpt lat="45.79783" lon="4.95301">
        <ele>55.89</ele>
        <time>2011-02-06T09:16:07Z</time>
      </trkpt>
      <trkpt lat="45.79782" lon="4.95309">
        <ele>55.41</ele>
        <time>2011-02-06T09:16:11Z</time>
      </trkpt>
      <trkpt lat="45.79776" lon="4.95339">
        <ele>55.41</ele>
        <time>2011-02-06T09:16:28Z</time>
      </trkpt>
      <trkpt lat="45.7977" lon="4.95366">
        <ele>55.89</ele>
        <time>2011-02-06T09:16:44Z</time>
      </trkpt>
      <trkpt lat="45.7977" lon="4.95371">
        <ele>55.41</ele>
        <time>2011-02-06T09:16:48Z</time>
      </trkpt>
      <trkpt lat="45.7977" lon="4.95375">
        <ele>56.37</ele>
        <time>2011-02-06T09:16:51Z</time>
      </trkpt>
      <trkpt lat="45.79768" lon="4.95379">
        <ele>55.41</ele>
        <time>2011-02-06T09:17:09Z</time>
      </trkpt>
      <trkpt lat="45.79768" lon="4.95379">
        <ele>55.41</ele>
        <time>2011-02-06T09:17:25Z</time>
      </trkpt>
      <trkpt lat="45.79768" lon="4.95379">
        <ele>55.41</ele>
        <time>2011-02-06T09:17:56Z</time>
      </trkpt>
      <trkpt lat="45.79768" lon="4.95379">
        <ele>55.41</ele>
        <time>2011-02-06T09:18:26Z</time>
      </trkpt>
      <trkpt lat="45.79768" lon="4.95381">
        <ele>55.41</ele>
        <time>2011-02-06T09:18:59Z</time>
      </trkpt>
      <trkpt lat="45.79767" lon="4.95391">
        <ele>55.41</ele>
        <time>2011-02-06T09:19:11Z</time>
      </trkpt>
      <trkpt lat="45.79767" lon="4.95396">
        <ele>55.89</ele>
        <time>2011-02-06T09:19:25Z</time>
      </trkpt>
      <trkpt lat="45.79766" lon="4.95407">
        <ele>55.89</ele>
        <time>2011-02-06T09:19:32Z</time>
      </trkpt>
      <trkpt lat="45.79765" lon="4.95414">
        <ele>55.41</ele>
        <time>2011-02-06T09:19:47Z</time>
      </trkpt>
      <trkpt lat="45.79765" lon="4.95416">
        <ele>55.89</ele>
        <time>2011-02-06T09:19:58Z</time>
      </trkpt>
      <trkpt lat="45.79765" lon="4.9544">
        <ele>55.89</ele>
        <time>2011-02-06T09:20:13Z</time>
      </trkpt>
      <trkpt lat="45.79764" lon="4.95448">
        <ele>55.41</ele>
        <time>2011-02-06T09:20:19Z</time>
      </trkpt>
      <trkpt lat="45.79763" lon="4.95452">
        <ele>55.89</ele>
        <time>2011-02-06T09:20:27Z</time>
      </trkpt>
      <trkpt lat="45.79763" lon="4.95457">
        <ele>55.89</ele>
        <time>2011-02-06T09:20:30Z</time>
      </trkpt>
      <trkpt lat="45.79758" lon="4.95483">
        <ele>55.41</ele>
        <time>2011-02-06T09:20:48Z</time>
      </trkpt>
      <trkpt lat="45.79757" lon="4.95491">
        <ele>55.89</ele>
        <time>2011-02-06T09:20:54Z</time>
      </trkpt>
      <trkpt lat="45.79762" lon="4.95513">
        <ele>55.89</ele>
        <time>2011-02-06T09:21:09Z</time>
      </trkpt>
      <trkpt lat="45.79765" lon="4.95519">
        <ele>55.89</ele>
        <time>2011-02-06T09:21:14Z</time>
      </trkpt>
      <trkpt lat="45.79768" lon="4.95526">
        <ele>56.37</ele>
        <time>2011-02-06T09:21:25Z</time>
      </trkpt>
      <trkpt lat="45.79777" lon="4.95536">
        <ele>56.37</ele>
        <time>2011-02-06T09:21:36Z</time>
      </trkpt>
      <trkpt lat="45.7978" lon="4.95556">
        <ele>55.41</ele>
        <time>2011-02-06T09:21:48Z</time>
      </trkpt>
      <trkpt lat="45.79781" lon="4.95579">
        <ele>55.41</ele>
        <time>2011-02-06T09:22:03Z</time>
      </trkpt>
      <trkpt lat="45.79783" lon="4.95603">
        <ele>55.89</ele>
        <time>2011-02-06T09:22:19Z</time>
      </trkpt>
      <trkpt lat="45.79781" lon="4.95631">
        <ele>55.89</ele>
        <time>2011-02-06T09:22:36Z</time>
      </trkpt>
      <trkpt lat="45.79783" lon="4.95644">
        <ele>55.89</ele>
        <time>2011-02-06T09:22:44Z</time>
      </trkpt>
      <trkpt lat="45.79783" lon="4.95648">
        <ele>55.89</ele>
        <time>2011-02-06T09:22:58Z</time>
      </trkpt>
      <trkpt lat="45.79782" lon="4.95667">
        <ele>55.41</ele>
        <time>2011-02-06T09:23:15Z</time>
      </trkpt>
      <trkpt lat="45.79782" lon="4.95675">
        <ele>55.41</ele>
        <time>2011-02-06T09:23:28Z</time>
      </trkpt>
      <trkpt lat="45.79782" lon="4.95676">
        <ele>55.41</ele>
        <time>2011-02-06T09:23:46Z</time>
      </trkpt>
      <trkpt lat="45.79782" lon="4.95677">
        <ele>55.41</ele>
        <time>2011-02-06T09:24:03Z</time>
      </trkpt>
      <trkpt lat="45.79782" lon="4.95681">
        <ele>56.37</ele>
        <time>2011-02-06T09:24:09Z</time>
      </trkpt>
      <trkpt lat="45.79783" lon="4.95685">
        <ele>56.86</ele>
        <time>2011-02-06T09:24:28Z</time>
      </trkpt>
      <trkpt lat="45.79782" lon="4.95696">
        <ele>56.37</ele>
        <time>2011-02-06T09:24:56Z</time>
      </trkpt>
      <trkpt lat="45.79781" lon="4.95716">
        <ele>56.86</ele>
        <time>2011-02-06T09:25:05Z</time>
      </trkpt>
      <trkpt lat="45.79779" lon="4.95736">
        <ele>56.37</ele>
        <time>2011-02-06T09:25:18Z</time>
      </trkpt>
      <trkpt lat="45.79777" lon="4.95743">
        <ele>56.37</ele>
        <time>2011-02-06T09:25:30Z</time>
      </trkpt>
      <trkpt lat="45.79777" lon="4.95754">
        <ele>55.89</ele>
        <time>2011-02-06T09:25:49Z</time>
      </trkpt>
      <trkpt lat="45.79769" lon="4.95783">
        <ele>56.37</ele>
        <time>2011-02-06T09:26:06Z</time>
      </trkpt>
      <trkpt lat="45.79762" lon="4.95812">
        <ele>56.37</ele>
        <time>2011-02-06T09:26:24Z</time>
      </trkpt>
      <trkpt lat="45.79755" lon="4.9584">
        <ele>56.37</ele>
        <time>2011-02-06T09:26:41Z</time>
      </trkpt>
      <trkpt lat="45.79753" lon="4.95852">
        <ele>56.37</ele>
        <time>2011-02-06T09:26:48Z</time>
      </trkpt>
      <trkpt lat="45.79747" lon="4.95877">
        <ele>56.37</ele>
        <time>2011-02-06T09:27:05Z</time>
      </trkpt>
      <trkpt lat="45.79743" lon="4.959">
        <ele>56.86</ele>
        <time>2011-02-06T09:27:19Z</time>
      </trkpt>
      <trkpt lat="45.79737" lon="4.95928">
        <ele>56.37</ele>
        <time>2011-02-06T09:27:37Z</time>
      </trkpt>
      <trkpt lat="45.79737" lon="4.95933">
        <ele>56.37</ele>
        <time>2011-02-06T09:27:40Z</time>
      </trkpt>
      <trkpt lat="45.79734" lon="4.95939">
        <ele>56.37</ele>
        <time>2011-02-06T09:27:48Z</time>
      </trkpt>
      <trkpt lat="45.7973" lon="4.95942">
        <ele>55.89</ele>
        <time>2011-02-06T09:28:02Z</time>
      </trkpt>
      <trkpt lat="45.7973" lon="4.95942">
        <ele>56.37</ele>
        <time>2011-02-06T09:28:25Z</time>
      </trkpt>
      <trkpt lat="45.7973" lon="4.95942">
        <ele>55.89</ele>
        <time>2011-02-06T09:28:50Z</time>
      </trkpt>
      <trkpt lat="45.7973" lon="4.95942">
        <ele>55.89</ele>
        <time>2011-02-06T09:29:21Z</time>
      </trkpt>
      <trkpt lat="45.79731" lon="4.95945">
        <ele>56.86</ele>
        <time>2011-02-06T09:29:35Z</time>
      </trkpt>
      <trkpt lat="45.7973" lon="4.9597">
        <ele>56.86</ele>
        <time>2011-02-06T09:29:52Z</time>
      </trkpt>
      <trkpt lat="45.7973" lon="4.9598">
        <ele>56.37</ele>
        <time>2011-02-06T09:29:59Z</time>
      </trkpt>
      <trkpt lat="45.79733" lon="4.95987">
        <ele>56.86</ele>
        <time>2011-02-06T09:30:05Z</time>
      </trkpt>
      <trkpt lat="45.79744" lon="4.9601">
        <ele>56.37</ele>
        <time>2011-02-06T09:30:22Z</time>
      </trkpt>
      <trkpt lat="45.79756" lon="4.96031">
        <ele>56.37</ele>
        <time>2011-02-06T09:30:38Z</time>
      </trkpt>
      <trkpt lat="45.7976" lon="4.96038">
        <ele>56.86</ele>
        <time>2011-02-06T09:30:52Z</time>
      </trkpt>
      <trkpt lat="45.79765" lon="4.96043">
        <ele>56.86</ele>
        <time>2011-02-06T09:31:13Z</time>
      </trkpt>
      <trkpt lat="45.79774" lon="4.96051">
        <ele>56.86</ele>
        <time>2011-02-06T09:31:22Z</time>
      </trkpt>
      <trkpt lat="45.79783" lon="4.96058">
        <ele>55.41</ele>
        <time>2011-02-06T09:31:32Z</time>
      </trkpt>
      <trkpt lat="45.798" lon="4.96055">
        <ele>55.41</ele>
        <time>2011-02-06T09:31:48Z</time>
      </trkpt>
      <trkpt lat="45.79821" lon="4.96058">
        <ele>55.89</ele>
        <time>2011-02-06T09:32:05Z</time>
      </trkpt>
      <trkpt lat="45.79822" lon="4.96058">
        <ele>54.93</ele>
        <time>2011-02-06T09:32:22Z</time>
      </trkpt>
      <trkpt lat="45.79831" lon="4.96058">
        <ele>54.93</ele>
        <time>2011-02-06T09:32:37Z</time>
      </trkpt>
      <trkpt lat="45.79841" lon="4.96056">
        <ele>55.89</ele>
        <time>2011-02-06T09:32:52Z</time>
      </trkpt>
      <trkpt lat="45.79849" lon="4.96056">
        <ele>56.37</ele>
        <time>2011-02-06T09:33:05Z</time>
      </trkpt>
      <trkpt lat="45.79849" lon="4.96058">
        <ele>56.37</ele>
        <time>2011-02-06T09:33:08Z</time>
      </trkpt>
      <trkpt lat="45.79851" lon="4.96072">
        <ele>56.86</ele>
        <time>2011-02-06T09:33:20Z</time>
      </trkpt>
      <trkpt lat="45.79859" lon="4.96079">
        <ele>57.82</ele>
        <time>2011-02-06T09:33:33Z</time>
      </trkpt>
      <trkpt lat="45.79865" lon="4.96082">
        <ele>57.34</ele>
        <time>2011-02-06T09:33:51Z</time>
      </trkpt>
      <trkpt lat="45.79874" lon="4.96086">
        <ele>55.89</ele>
        <time>2011-02-06T09:34:01Z</time>
      </trkpt>
      <trkpt lat="45.79895" lon="4.96083">
        <ele>55.41</ele>
        <time>2011-02-06T09:34:19Z</time>
      </trkpt>
      <trkpt lat="45.79905" lon="4.96081">
        <ele>55.41</ele>
        <time>2011-02-06T09:34:33Z</time>
      </trkpt>
      <trkpt lat="45.79916" lon="4.96082">
        <ele>55.41</ele>
        <time>2011-02-06T09:34:44Z</time>
      </trkpt>
      <trkpt lat="45.79928" lon="4.9609">
        <ele>54.93</ele>
        <time>2011-02-06T09:35:02Z</time>
      </trkpt>
      <trkpt lat="45.79929" lon="4.9609">
        <ele>54.93</ele>
        <time>2011-02-06T09:35:17Z</time>
      </trkpt>
      <trkpt lat="45.79937" lon="4.96099">
        <ele>54.93</ele>
        <time>2011-02-06T09:35:26Z</time>
      </trkpt>
      <trkpt lat="45.7995" lon="4.96114">
        <ele>54.45</ele>
        <time>2011-02-06T09:35:42Z</time>
      </trkpt>
      <trkpt lat="45.79951" lon="4.96114">
        <ele>54.45</ele>
        <time>2011-02-06T09:35:46Z</time>
      </trkpt>
      <trkpt lat="45.7996" lon="4.9611">
        <ele>53.97</ele>
        <time>2011-02-06T09:35:54Z</time>
      </trkpt>
      <trkpt lat="45.79968" lon="4.96108">
        <ele>53.97</ele>
        <time>2011-02-06T09:36:02Z</time>
      </trkpt>
      <trkpt lat="45.79981" lon="4.96102">
        <ele>54.45</ele>
        <time>2011-02-06T09:36:16Z</time>
      </trkpt>
      <trkpt lat="45.79988" lon="4.96096">
        <ele>53.97</ele>
        <time>2011-02-06T09:36:23Z</time>
      </trkpt>
      <trkpt lat="45.7999" lon="4.96094">
        <ele>54.45</ele>
        <time>2011-02-06T09:36:26Z</time>
      </trkpt>
      <trkpt lat="45.79993" lon="4.96091">
        <ele>53.97</ele>
        <time>2011-02-06T09:36:30Z</time>
      </trkpt>
      <trkpt lat="45.79999" lon="4.96084">
        <ele>54.45</ele>
        <time>2011-02-06T09:36:40Z</time>
      </trkpt>
      <trkpt lat="45.79998" lon="4.96086">
        <ele>54.45</ele>
        <time>2011-02-06T09:36:54Z</time>
      </trkpt>
      <trkpt lat="45.79999" lon="4.96083">
        <ele>54.93</ele>
        <time>2011-02-06T09:37:03Z</time>
      </trkpt>
      <trkpt lat="45.80003" lon="4.96077">
        <ele>54.45</ele>
        <time>2011-02-06T09:37:08Z</time>
      </trkpt>
      <trkpt lat="45.80009" lon="4.9607">
        <ele>54.93</ele>
        <time>2011-02-06T09:37:14Z</time>
      </trkpt>
      <trkpt lat="45.80012" lon="4.96042">
        <ele>54.93</ele>
        <time>2011-02-06T09:37:32Z</time>
      </trkpt>
      <trkpt lat="45.80013" lon="4.96042">
        <ele>54.45</ele>
        <time>2011-02-06T09:37:42Z</time>
      </trkpt>
      <trkpt lat="45.80013" lon="4.96042">
        <ele>54.93</ele>
        <time>2011-02-06T09:37:55Z</time>
      </trkpt>
      <trkpt lat="45.80016" lon="4.96007">
        <ele>55.41</ele>
        <time>2011-02-06T09:38:15Z</time>
      </trkpt>
      <trkpt lat="45.80016" lon="4.96004">
        <ele>55.41</ele>
        <time>2011-02-06T09:38:17Z</time>
      </trkpt>
      <trkpt lat="45.80019" lon="4.95974">
        <ele>55.89</ele>
        <time>2011-02-06T09:38:35Z</time>
      </trkpt>
      <trkpt lat="45.80019" lon="4.95969">
        <ele>55.89</ele>
        <time>2011-02-06T09:38:40Z</time>
      </trkpt>
      <trkpt lat="45.8002" lon="4.9594">
        <ele>56.86</ele>
        <time>2011-02-06T09:38:58Z</time>
      </trkpt>
      <trkpt lat="45.80021" lon="4.95913">
        <ele>56.86</ele>
        <time>2011-02-06T09:39:15Z</time>
      </trkpt>
      <trkpt lat="45.8002" lon="4.9591">
        <ele>56.86</ele>
        <time>2011-02-06T09:39:17Z</time>
      </trkpt>
      <trkpt lat="45.80021" lon="4.95903">
        <ele>56.86</ele>
        <time>2011-02-06T09:39:21Z</time>
      </trkpt>
      <trkpt lat="45.80021" lon="4.95874">
        <ele>57.82</ele>
        <time>2011-02-06T09:39:38Z</time>
      </trkpt>
      <trkpt lat="45.80022" lon="4.95856">
        <ele>57.82</ele>
        <time>2011-02-06T09:39:49Z</time>
      </trkpt>
      <trkpt lat="45.80033" lon="4.95835">
        <ele>58.3</ele>
        <time>2011-02-06T09:40:06Z</time>
      </trkpt>
      <trkpt lat="45.80041" lon="4.95827">
        <ele>57.82</ele>
        <time>2011-02-06T09:40:15Z</time>
      </trkpt>
      <trkpt lat="45.80044" lon="4.95825">
        <ele>57.34</ele>
        <time>2011-02-06T09:40:19Z</time>
      </trkpt>
      <trkpt lat="45.80046" lon="4.95822">
        <ele>57.82</ele>
        <time>2011-02-06T09:40:37Z</time>
      </trkpt>
      <trkpt lat="45.80046" lon="4.95823">
        <ele>57.34</ele>
        <time>2011-02-06T09:40:52Z</time>
      </trkpt>
      <trkpt lat="45.80047" lon="4.95822">
        <ele>56.37</ele>
        <time>2011-02-06T09:41:00Z</time>
      </trkpt>
      <trkpt lat="45.80047" lon="4.95822">
        <ele>56.86</ele>
        <time>2011-02-06T09:41:35Z</time>
      </trkpt>
      <trkpt lat="45.80047" lon="4.95822">
        <ele>59.74</ele>
        <time>2011-02-06T09:41:41Z</time>
      </trkpt>
      <trkpt lat="45.80047" lon="4.95822">
        <ele>56.86</ele>
        <time>2011-02-06T09:41:42Z</time>
      </trkpt>
      <trkpt lat="45.80047" lon="4.95822">
        <ele>63.1</ele>
        <time>2011-02-06T09:42:00Z</time>
      </trkpt>
      <trkpt lat="45.80047" lon="4.95822">
        <ele>56.86</ele>
        <time>2011-02-06T09:42:01Z</time>
      </trkpt>
      <trkpt lat="45.80047" lon="4.95821">
        <ele>56.86</ele>
        <time>2011-02-06T09:42:32Z</time>
      </trkpt>
      <trkpt lat="45.80049" lon="4.95818">
        <ele>57.34</ele>
        <time>2011-02-06T09:42:47Z</time>
      </trkpt>
      <trkpt lat="45.80056" lon="4.95807">
        <ele>57.34</ele>
        <time>2011-02-06T09:42:56Z</time>
      </trkpt>
      <trkpt lat="45.80055" lon="4.95806">
        <ele>57.82</ele>
        <time>2011-02-06T09:43:13Z</time>
      </trkpt>
      <trkpt lat="45.80058" lon="4.95805">
        <ele>56.86</ele>
        <time>2011-02-06T09:43:30Z</time>
      </trkpt>
      <trkpt lat="45.80062" lon="4.95803">
        <ele>56.86</ele>
        <time>2011-02-06T09:43:37Z</time>
      </trkpt>
      <trkpt lat="45.80067" lon="4.95797">
        <ele>57.34</ele>
        <time>2011-02-06T09:43:43Z</time>
      </trkpt>
      <trkpt lat="45.8007" lon="4.95794">
        <ele>57.34</ele>
        <time>2011-02-06T09:43:46Z</time>
      </trkpt>
      <trkpt lat="45.80076" lon="4.95786">
        <ele>57.34</ele>
        <time>2011-02-06T09:44:00Z</time>
      </trkpt>
      <trkpt lat="45.80077" lon="4.95785">
        <ele>57.34</ele>
        <time>2011-02-06T09:44:21Z</time>
      </trkpt>
      <trkpt lat="45.80077" lon="4.95785">
        <ele>58.78</ele>
        <time>2011-02-06T09:44:39Z</time>
      </trkpt>
      <trkpt lat="45.80081" lon="4.95781">
        <ele>57.34</ele>
        <time>2011-02-06T09:44:52Z</time>
      </trkpt>
      <trkpt lat="45.80082" lon="4.95779">
        <ele>57.82</ele>
        <time>2011-02-06T09:45:11Z</time>
      </trkpt>
      <trkpt lat="45.80083" lon="4.95777">
        <ele>57.34</ele>
        <time>2011-02-06T09:45:32Z</time>
      </trkpt>
      <trkpt lat="45.80083" lon="4.95778">
        <ele>57.34</ele>
        <time>2011-02-06T09:45:35Z</time>
      </trkpt>
      <trkpt lat="45.80084" lon="4.95798">
        <ele>57.34</ele>
        <time>2011-02-06T09:45:51Z</time>
      </trkpt>
      <trkpt lat="45.80082" lon="4.95824">
        <ele>57.34</ele>
        <time>2011-02-06T09:46:07Z</time>
      </trkpt>
      <trkpt lat="45.80082" lon="4.95849">
        <ele>57.82</ele>
        <time>2011-02-06T09:46:22Z</time>
      </trkpt>
      <trkpt lat="45.80081" lon="4.95873">
        <ele>57.82</ele>
        <time>2011-02-06T09:46:37Z</time>
      </trkpt>
      <trkpt lat="45.8008" lon="4.95898">
        <ele>58.3</ele>
        <time>2011-02-06T09:46:51Z</time>
      </trkpt>
      <trkpt lat="45.80079" lon="4.95926">
        <ele>57.34</ele>
        <time>2011-02-06T09:47:07Z</time>
      </trkpt>
      <trkpt lat="45.80076" lon="4.95952">
        <ele>57.82</ele>
        <time>2011-02-06T09:47:20Z</time>
      </trkpt>
      <trkpt lat="45.80076" lon="4.95977">
        <ele>57.82</ele>
        <time>2011-02-06T09:47:34Z</time>
      </trkpt>
      <trkpt lat="45.80076" lon="4.95985">
        <ele>57.82</ele>
        <time>2011-02-06T09:47:39Z</time>
      </trkpt>
      <trkpt lat="45.80078" lon="4.95996">
        <ele>57.82</ele>
        <time>2011-02-06T09:47:46Z</time>
      </trkpt>
      <trkpt lat="45.8008" lon="4.96022">
        <ele>57.82</ele>
        <time>2011-02-06T09:48:01Z</time>
      </trkpt>
      <trkpt lat="45.80083" lon="4.96037">
        <ele>57.82</ele>
        <time>2011-02-06T09:48:16Z</time>
      </trkpt>
      <trkpt lat="45.80083" lon="4.96037">
        <ele>57.82</ele>
        <time>2011-02-06T09:48:18Z</time>
      </trkpt>
      <trkpt lat="45.80094" lon="4.96056">
        <ele>57.34</ele>
        <time>2011-02-06T09:48:34Z</time>
      </trkpt>
      <trkpt lat="45.80095" lon="4.96058">
        <ele>57.34</ele>
        <time>2011-02-06T09:48:35Z</time>
      </trkpt>
      <trkpt lat="45.80113" lon="4.9607">
        <ele>57.82</ele>
        <time>2011-02-06T09:48:49Z</time>
      </trkpt>
      <trkpt lat="45.80124" lon="4.96077">
        <ele>57.82</ele>
        <time>2011-02-06T09:48:54Z</time>
      </trkpt>
      <trkpt lat="45.80133" lon="4.96083">
        <ele>57.34</ele>
        <time>2011-02-06T09:48:59Z</time>
      </trkpt>
      <trkpt lat="45.80146" lon="4.96087">
        <ele>57.34</ele>
        <time>2011-02-06T09:49:08Z</time>
      </trkpt>
      <trkpt lat="45.80168" lon="4.96073">
        <ele>56.86</ele>
        <time>2011-02-06T09:49:26Z</time>
      </trkpt>
      <trkpt lat="45.80186" lon="4.96049">
        <ele>56.86</ele>
        <time>2011-02-06T09:49:45Z</time>
      </trkpt>
      <trkpt lat="45.802" lon="4.96022">
        <ele>57.34</ele>
        <time>2011-02-06T09:50:04Z</time>
      </trkpt>
      <trkpt lat="45.80203" lon="4.96018">
        <ele>57.34</ele>
        <time>2011-02-06T09:50:08Z</time>
      </trkpt>
      <trkpt lat="45.80214" lon="4.96">
        <ele>57.82</ele>
        <time>2011-02-06T09:50:25Z</time>
      </trkpt>
      <trkpt lat="45.80216" lon="4.95996">
        <ele>58.3</ele>
        <time>2011-02-06T09:50:40Z</time>
      </trkpt>
      <trkpt lat="45.80217" lon="4.95995">
        <ele>58.3</ele>
        <time>2011-02-06T09:50:41Z</time>
      </trkpt>
      <trkpt lat="45.80222" lon="4.95983">
        <ele>57.82</ele>
        <time>2011-02-06T09:50:49Z</time>
      </trkpt>
      <trkpt lat="45.80234" lon="4.95964">
        <ele>55.89</ele>
        <time>2011-02-06T09:51:04Z</time>
      </trkpt>
      <trkpt lat="45.80249" lon="4.95948">
        <ele>55.41</ele>
        <time>2011-02-06T09:51:20Z</time>
      </trkpt>
      <trkpt lat="45.80254" lon="4.95939">
        <ele>55.41</ele>
        <time>2011-02-06T09:51:27Z</time>
      </trkpt>
      <trkpt lat="45.80274" lon="4.95923">
        <ele>55.89</ele>
        <time>2011-02-06T09:51:46Z</time>
      </trkpt>
      <trkpt lat="45.80292" lon="4.95902">
        <ele>56.86</ele>
        <time>2011-02-06T09:52:06Z</time>
      </trkpt>
      <trkpt lat="45.80305" lon="4.95886">
        <ele>57.34</ele>
        <time>2011-02-06T09:52:21Z</time>
      </trkpt>
      <trkpt lat="45.80308" lon="4.95885">
        <ele>57.82</ele>
        <time>2011-02-06T09:52:24Z</time>
      </trkpt>
      <trkpt lat="45.80317" lon="4.95889">
        <ele>58.3</ele>
        <time>2011-02-06T09:52:33Z</time>
      </trkpt>
      <trkpt lat="45.80322" lon="4.9589">
        <ele>58.3</ele>
        <time>2011-02-06T09:52:38Z</time>
      </trkpt>
      <trkpt lat="45.80344" lon="4.95899">
        <ele>57.34</ele>
        <time>2011-02-06T09:52:58Z</time>
      </trkpt>
      <trkpt lat="45.80347" lon="4.95901">
        <ele>56.86</ele>
        <time>2011-02-06T09:53:01Z</time>
      </trkpt>
      <trkpt lat="45.80363" lon="4.95913">
        <ele>55.89</ele>
        <time>2011-02-06T09:53:17Z</time>
      </trkpt>
      <trkpt lat="45.80378" lon="4.95926">
        <ele>54.93</ele>
        <time>2011-02-06T09:53:33Z</time>
      </trkpt>
      <trkpt lat="45.80382" lon="4.95932">
        <ele>54.93</ele>
        <time>2011-02-06T09:53:46Z</time>
      </trkpt>
      <trkpt lat="45.80382" lon="4.95937">
        <ele>54.93</ele>
        <time>2011-02-06T09:54:02Z</time>
      </trkpt>
      <trkpt lat="45.80381" lon="4.95942">
        <ele>54.93</ele>
        <time>2011-02-06T09:54:19Z</time>
      </trkpt>
      <trkpt lat="45.80385" lon="4.95941">
        <ele>54.93</ele>
        <time>2011-02-06T09:54:43Z</time>
      </trkpt>
      <trkpt lat="45.80386" lon="4.9594">
        <ele>54.93</ele>
        <time>2011-02-06T09:54:44Z</time>
      </trkpt>
      <trkpt lat="45.80386" lon="4.9594">
        <ele>54.93</ele>
        <time>2011-02-06T09:55:01Z</time>
      </trkpt>
      <trkpt lat="45.80385" lon="4.95941">
        <ele>54.93</ele>
        <time>2011-02-06T09:55:21Z</time>
      </trkpt>
      <trkpt lat="45.80385" lon="4.95942">
        <ele>54.93</ele>
        <time>2011-02-06T09:55:23Z</time>
      </trkpt>
      <trkpt lat="45.80384" lon="4.95943">
        <ele>54.93</ele>
        <time>2011-02-06T09:55:47Z</time>
      </trkpt>
      <trkpt lat="45.80384" lon="4.95941">
        <ele>54.93</ele>
        <time>2011-02-06T09:55:55Z</time>
      </trkpt>
      <trkpt lat="45.80384" lon="4.95937">
        <ele>54.93</ele>
        <time>2011-02-06T09:56:11Z</time>
      </trkpt>
      <trkpt lat="45.80385" lon="4.95936">
        <ele>54.93</ele>
        <time>2011-02-06T09:56:27Z</time>
      </trkpt>
      <trkpt lat="45.80384" lon="4.95932">
        <ele>55.41</ele>
        <time>2011-02-06T09:56:47Z</time>
      </trkpt>
      <trkpt lat="45.80383" lon="4.95928">
        <ele>55.41</ele>
        <time>2011-02-06T09:56:50Z</time>
      </trkpt>
      <trkpt lat="45.8038" lon="4.95923">
        <ele>55.41</ele>
        <time>2011-02-06T09:56:56Z</time>
      </trkpt>
      <trkpt lat="45.80368" lon="4.95913">
        <ele>55.89</ele>
        <time>2011-02-06T09:57:09Z</time>
      </trkpt>
      <trkpt lat="45.80362" lon="4.95908">
        <ele>56.37</ele>
        <time>2011-02-06T09:57:15Z</time>
      </trkpt>
      <trkpt lat="45.80357" lon="4.95906">
        <ele>55.89</ele>
        <time>2011-02-06T09:57:27Z</time>
      </trkpt>
      <trkpt lat="45.80356" lon="4.95905">
        <ele>55.89</ele>
        <time>2011-02-06T09:57:44Z</time>
      </trkpt>
      <trkpt lat="45.80357" lon="4.95905">
        <ele>56.37</ele>
        <time>2011-02-06T09:58:04Z</time>
      </trkpt>
      <trkpt lat="45.80357" lon="4.95905">
        <ele>56.37</ele>
        <time>2011-02-06T09:58:29Z</time>
      </trkpt>
      <trkpt lat="45.80353" lon="4.95903">
        <ele>56.86</ele>
        <time>2011-02-06T09:58:55Z</time>
      </trkpt>
      <trkpt lat="45.80336" lon="4.95894">
        <ele>57.82</ele>
        <time>2011-02-06T09:59:13Z</time>
      </trkpt>
      <trkpt lat="45.80318" lon="4.95885">
        <ele>57.82</ele>
        <time>2011-02-06T09:59:30Z</time>
      </trkpt>
      <trkpt lat="45.80308" lon="4.95881">
        <ele>57.82</ele>
        <time>2011-02-06T09:59:40Z</time>
      </trkpt>
      <trkpt lat="45.80301" lon="4.95885">
        <ele>57.34</ele>
        <time>2011-02-06T09:59:45Z</time>
      </trkpt>
      <trkpt lat="45.8029" lon="4.95906">
        <ele>56.37</ele>
        <time>2011-02-06T10:00:01Z</time>
      </trkpt>
      <trkpt lat="45.80275" lon="4.95921">
        <ele>55.89</ele>
        <time>2011-02-06T10:00:19Z</time>
      </trkpt>
      <trkpt lat="45.80263" lon="4.95927">
        <ele>55.41</ele>
        <time>2011-02-06T10:00:30Z</time>
      </trkpt>
      <trkpt lat="45.80255" lon="4.95936">
        <ele>54.93</ele>
        <time>2011-02-06T10:00:38Z</time>
      </trkpt>
      <trkpt lat="45.80244" lon="4.95947">
        <ele>55.89</ele>
        <time>2011-02-06T10:00:53Z</time>
      </trkpt>
      <trkpt lat="45.80242" lon="4.95949">
        <ele>55.89</ele>
        <time>2011-02-06T10:01:07Z</time>
      </trkpt>
      <trkpt lat="45.80242" lon="4.95951">
        <ele>55.41</ele>
        <time>2011-02-06T10:01:24Z</time>
      </trkpt>
      <trkpt lat="45.8024" lon="4.95953">
        <ele>55.41</ele>
        <time>2011-02-06T10:01:26Z</time>
      </trkpt>
      <trkpt lat="45.80232" lon="4.9596">
        <ele>56.86</ele>
        <time>2011-02-06T10:01:39Z</time>
      </trkpt>
      <trkpt lat="45.80231" lon="4.95962">
        <ele>56.86</ele>
        <time>2011-02-06T10:01:53Z</time>
      </trkpt>
      <trkpt lat="45.80229" lon="4.95967">
        <ele>56.86</ele>
        <time>2011-02-06T10:01:59Z</time>
      </trkpt>
      <trkpt lat="45.80227" lon="4.95968">
        <ele>57.34</ele>
        <time>2011-02-06T10:02:07Z</time>
      </trkpt>
      <trkpt lat="45.80219" lon="4.95988">
        <ele>58.3</ele>
        <time>2011-02-06T10:02:24Z</time>
      </trkpt>
      <trkpt lat="45.80218" lon="4.95995">
        <ele>58.78</ele>
        <time>2011-02-06T10:02:40Z</time>
      </trkpt>
      <trkpt lat="45.80217" lon="4.95997">
        <ele>58.3</ele>
        <time>2011-02-06T10:02:59Z</time>
      </trkpt>
      <trkpt lat="45.80216" lon="4.96005">
        <ele>57.82</ele>
        <time>2011-02-06T10:03:10Z</time>
      </trkpt>
      <trkpt lat="45.80211" lon="4.96028">
        <ele>57.82</ele>
        <time>2011-02-06T10:03:25Z</time>
      </trkpt>
      <trkpt lat="45.8021" lon="4.9603">
        <ele>58.3</ele>
        <time>2011-02-06T10:03:27Z</time>
      </trkpt>
      <trkpt lat="45.80206" lon="4.96036">
        <ele>57.34</ele>
        <time>2011-02-06T10:03:31Z</time>
      </trkpt>
      <trkpt lat="45.80207" lon="4.96045">
        <ele>57.82</ele>
        <time>2011-02-06T10:03:36Z</time>
      </trkpt>
      <trkpt lat="45.80202" lon="4.96077">
        <ele>57.82</ele>
        <time>2011-02-06T10:03:55Z</time>
      </trkpt>
      <trkpt lat="45.802" lon="4.96103">
        <ele>58.3</ele>
        <time>2011-02-06T10:04:11Z</time>
      </trkpt>
      <trkpt lat="45.80202" lon="4.96113">
        <ele>58.3</ele>
        <time>2011-02-06T10:04:18Z</time>
      </trkpt>
      <trkpt lat="45.80212" lon="4.96139">
        <ele>58.3</ele>
        <time>2011-02-06T10:04:36Z</time>
      </trkpt>
      <trkpt lat="45.80213" lon="4.96149">
        <ele>58.78</ele>
        <time>2011-02-06T10:04:51Z</time>
      </trkpt>
      <trkpt lat="45.80212" lon="4.9615">
        <ele>58.3</ele>
        <time>2011-02-06T10:04:52Z</time>
      </trkpt>
      <trkpt lat="45.80211" lon="4.96156">
        <ele>58.3</ele>
        <time>2011-02-06T10:04:56Z</time>
      </trkpt>
      <trkpt lat="45.80212" lon="4.9616">
        <ele>58.3</ele>
        <time>2011-02-06T10:04:59Z</time>
      </trkpt>
      <trkpt lat="45.80212" lon="4.96167">
        <ele>58.78</ele>
        <time>2011-02-06T10:05:05Z</time>
      </trkpt>
      <trkpt lat="45.80215" lon="4.96172">
        <ele>58.78</ele>
        <time>2011-02-06T10:05:08Z</time>
      </trkpt>
      <trkpt lat="45.80221" lon="4.96198">
        <ele>58.78</ele>
        <time>2011-02-06T10:05:27Z</time>
      </trkpt>
      <trkpt lat="45.80232" lon="4.96215">
        <ele>58.78</ele>
        <time>2011-02-06T10:05:41Z</time>
      </trkpt>
      <trkpt lat="45.80239" lon="4.96225">
        <ele>58.3</ele>
        <time>2011-02-06T10:05:55Z</time>
      </trkpt>
      <trkpt lat="45.80246" lon="4.96248">
        <ele>58.3</ele>
        <time>2011-02-06T10:06:11Z</time>
      </trkpt>
      <trkpt lat="45.80254" lon="4.96267">
        <ele>58.78</ele>
        <time>2011-02-06T10:06:27Z</time>
      </trkpt>
      <trkpt lat="45.80254" lon="4.96268">
        <ele>58.78</ele>
        <time>2011-02-06T10:06:28Z</time>
      </trkpt>
      <trkpt lat="45.80265" lon="4.96283">
        <ele>58.3</ele>
        <time>2011-02-06T10:06:44Z</time>
      </trkpt>
      <trkpt lat="45.8027" lon="4.96287">
        <ele>58.78</ele>
        <time>2011-02-06T10:06:50Z</time>
      </trkpt>
      <trkpt lat="45.80288" lon="4.96297">
        <ele>58.78</ele>
        <time>2011-02-06T10:07:07Z</time>
      </trkpt>
      <trkpt lat="45.80308" lon="4.96303">
        <ele>58.78</ele>
        <time>2011-02-06T10:07:25Z</time>
      </trkpt>
      <trkpt lat="45.80314" lon="4.96304">
        <ele>59.26</ele>
        <time>2011-02-06T10:07:30Z</time>
      </trkpt>
      <trkpt lat="45.80321" lon="4.96307">
        <ele>59.26</ele>
        <time>2011-02-06T10:07:36Z</time>
      </trkpt>
      <trkpt lat="45.80344" lon="4.96309">
        <ele>60.22</ele>
        <time>2011-02-06T10:07:55Z</time>
      </trkpt>
      <trkpt lat="45.80362" lon="4.96307">
        <ele>60.7</ele>
        <time>2011-02-06T10:08:12Z</time>
      </trkpt>
      <trkpt lat="45.80374" lon="4.96305">
        <ele>61.18</ele>
        <time>2011-02-06T10:08:29Z</time>
      </trkpt>
      <trkpt lat="45.80381" lon="4.96306">
        <ele>61.18</ele>
        <time>2011-02-06T10:08:38Z</time>
      </trkpt>
      <trkpt lat="45.80385" lon="4.96307">
        <ele>61.66</ele>
        <time>2011-02-06T10:08:42Z</time>
      </trkpt>
      <trkpt lat="45.80397" lon="4.96303">
        <ele>61.66</ele>
        <time>2011-02-06T10:08:54Z</time>
      </trkpt>
      <trkpt lat="45.80402" lon="4.96304">
        <ele>60.22</ele>
        <time>2011-02-06T10:09:08Z</time>
      </trkpt>
      <trkpt lat="45.80404" lon="4.96304">
        <ele>60.22</ele>
        <time>2011-02-06T10:09:25Z</time>
      </trkpt>
      <trkpt lat="45.80404" lon="4.96304">
        <ele>60.22</ele>
        <time>2011-02-06T10:09:45Z</time>
      </trkpt>
      <trkpt lat="45.80403" lon="4.96308">
        <ele>59.26</ele>
        <time>2011-02-06T10:09:59Z</time>
      </trkpt>
      <trkpt lat="45.80403" lon="4.96309">
        <ele>58.78</ele>
        <time>2011-02-06T10:10:22Z</time>
      </trkpt>
      <trkpt lat="45.80403" lon="4.96308">
        <ele>60.7</ele>
        <time>2011-02-06T10:10:42Z</time>
      </trkpt>
      <trkpt lat="45.80403" lon="4.96307">
        <ele>59.74</ele>
        <time>2011-02-06T10:10:55Z</time>
      </trkpt>
      <trkpt lat="45.80403" lon="4.96307">
        <ele>60.22</ele>
        <time>2011-02-06T10:11:16Z</time>
      </trkpt>
      <trkpt lat="45.80403" lon="4.96307">
        <ele>60.7</ele>
        <time>2011-02-06T10:11:39Z</time>
      </trkpt>
      <trkpt lat="45.804" lon="4.96305">
        <ele>62.14</ele>
        <time>2011-02-06T10:11:53Z</time>
      </trkpt>
      <trkpt lat="45.80396" lon="4.96306">
        <ele>62.14</ele>
        <time>2011-02-06T10:12:05Z</time>
      </trkpt>
      <trkpt lat="45.80395" lon="4.96307">
        <ele>62.14</ele>
        <time>2011-02-06T10:12:26Z</time>
      </trkpt>
      <trkpt lat="45.80395" lon="4.96307">
        <ele>62.14</ele>
        <time>2011-02-06T10:13:04Z</time>
      </trkpt>
      <trkpt lat="45.80394" lon="4.96308">
        <ele>62.14</ele>
        <time>2011-02-06T10:13:20Z</time>
      </trkpt>
      <trkpt lat="45.80386" lon="4.96305">
        <ele>62.14</ele>
        <time>2011-02-06T10:13:31Z</time>
      </trkpt>
      <trkpt lat="45.80382" lon="4.96306">
        <ele>62.14</ele>
        <time>2011-02-06T10:13:35Z</time>
      </trkpt>
      <trkpt lat="45.8036" lon="4.96307">
        <ele>61.18</ele>
        <time>2011-02-06T10:13:54Z</time>
      </trkpt>
      <trkpt lat="45.80343" lon="4.96308">
        <ele>60.22</ele>
        <time>2011-02-06T10:14:10Z</time>
      </trkpt>
      <trkpt lat="45.80331" lon="4.96308">
        <ele>59.74</ele>
        <time>2011-02-06T10:14:20Z</time>
      </trkpt>
      <trkpt lat="45.80326" lon="4.96306">
        <ele>60.22</ele>
        <time>2011-02-06T10:14:25Z</time>
      </trkpt>
      <trkpt lat="45.80319" lon="4.96306">
        <ele>59.74</ele>
        <time>2011-02-06T10:14:31Z</time>
      </trkpt>
      <trkpt lat="45.80315" lon="4.96305">
        <ele>60.22</ele>
        <time>2011-02-06T10:14:35Z</time>
      </trkpt>
      <trkpt lat="45.80299" lon="4.96299">
        <ele>59.26</ele>
        <time>2011-02-06T10:14:50Z</time>
      </trkpt>
      <trkpt lat="45.80278" lon="4.96294">
        <ele>59.26</ele>
        <time>2011-02-06T10:15:08Z</time>
      </trkpt>
      <trkpt lat="45.80277" lon="4.96294">
        <ele>59.26</ele>
        <time>2011-02-06T10:15:09Z</time>
      </trkpt>
      <trkpt lat="45.80274" lon="4.96298">
        <ele>58.78</ele>
        <time>2011-02-06T10:15:17Z</time>
      </trkpt>
      <trkpt lat="45.8027" lon="4.96304">
        <ele>59.26</ele>
        <time>2011-02-06T10:15:21Z</time>
      </trkpt>
      <trkpt lat="45.80262" lon="4.96309">
        <ele>59.74</ele>
        <time>2011-02-06T10:15:34Z</time>
      </trkpt>
      <trkpt lat="45.80255" lon="4.96315">
        <ele>61.18</ele>
        <time>2011-02-06T10:15:47Z</time>
      </trkpt>
      <trkpt lat="45.80245" lon="4.96323">
        <ele>60.22</ele>
        <time>2011-02-06T10:16:02Z</time>
      </trkpt>
      <trkpt lat="45.80243" lon="4.96322">
        <ele>59.26</ele>
        <time>2011-02-06T10:16:04Z</time>
      </trkpt>
      <trkpt lat="45.80231" lon="4.96322">
        <ele>57.82</ele>
        <time>2011-02-06T10:16:20Z</time>
      </trkpt>
      <trkpt lat="45.80223" lon="4.96316">
        <ele>57.34</ele>
        <time>2011-02-06T10:16:36Z</time>
      </trkpt>
      <trkpt lat="45.80222" lon="4.96313">
        <ele>56.86</ele>
        <time>2011-02-06T10:16:38Z</time>
      </trkpt>
      <trkpt lat="45.80213" lon="4.96305">
        <ele>57.34</ele>
        <time>2011-02-06T10:16:52Z</time>
      </trkpt>
      <trkpt lat="45.80202" lon="4.96294">
        <ele>57.34</ele>
        <time>2011-02-06T10:17:07Z</time>
      </trkpt>
      <trkpt lat="45.80195" lon="4.96282">
        <ele>57.82</ele>
        <time>2011-02-06T10:17:22Z</time>
      </trkpt>
      <trkpt lat="45.8019" lon="4.96277">
        <ele>57.82</ele>
        <time>2011-02-06T10:17:36Z</time>
      </trkpt>
      <trkpt lat="45.8019" lon="4.96277">
        <ele>57.82</ele>
        <time>2011-02-06T10:17:38Z</time>
      </trkpt>
      <trkpt lat="45.80177" lon="4.96276">
        <ele>57.34</ele>
        <time>2011-02-06T10:17:55Z</time>
      </trkpt>
      <trkpt lat="45.80164" lon="4.96287">
        <ele>55.89</ele>
        <time>2011-02-06T10:18:10Z</time>
      </trkpt>
      <trkpt lat="45.80162" lon="4.96289">
        <ele>56.86</ele>
        <time>2011-02-06T10:18:13Z</time>
      </trkpt>
      <trkpt lat="45.8016" lon="4.9629">
        <ele>56.86</ele>
        <time>2011-02-06T10:18:33Z</time>
      </trkpt>
      <trkpt lat="45.8016" lon="4.96291">
        <ele>56.37</ele>
        <time>2011-02-06T10:18:58Z</time>
      </trkpt>
      <trkpt lat="45.80159" lon="4.96292">
        <ele>56.86</ele>
        <time>2011-02-06T10:19:12Z</time>
      </trkpt>
      <trkpt lat="45.80157" lon="4.9629">
        <ele>56.37</ele>
        <time>2011-02-06T10:19:25Z</time>
      </trkpt>
      <trkpt lat="45.80148" lon="4.96293">
        <ele>56.37</ele>
        <time>2011-02-06T10:19:39Z</time>
      </trkpt>
      <trkpt lat="45.80137" lon="4.96284">
        <ele>56.37</ele>
        <time>2011-02-06T10:19:55Z</time>
      </trkpt>
      <trkpt lat="45.80132" lon="4.96278">
        <ele>56.37</ele>
        <time>2011-02-06T10:20:02Z</time>
      </trkpt>
      <trkpt lat="45.80117" lon="4.96264">
        <ele>56.37</ele>
        <time>2011-02-06T10:20:17Z</time>
      </trkpt>
      <trkpt lat="45.80106" lon="4.96248">
        <ele>56.86</ele>
        <time>2011-02-06T10:20:33Z</time>
      </trkpt>
      <trkpt lat="45.80105" lon="4.96247">
        <ele>56.86</ele>
        <time>2011-02-06T10:20:34Z</time>
      </trkpt>
      <trkpt lat="45.80104" lon="4.96229">
        <ele>56.86</ele>
        <time>2011-02-06T10:20:49Z</time>
      </trkpt>
      <trkpt lat="45.80098" lon="4.96218">
        <ele>56.86</ele>
        <time>2011-02-06T10:21:05Z</time>
      </trkpt>
      <trkpt lat="45.80087" lon="4.96209">
        <ele>56.86</ele>
        <time>2011-02-06T10:21:18Z</time>
      </trkpt>
      <trkpt lat="45.80077" lon="4.96201">
        <ele>56.86</ele>
        <time>2011-02-06T10:21:35Z</time>
      </trkpt>
      <trkpt lat="45.80071" lon="4.96197">
        <ele>56.86</ele>
        <time>2011-02-06T10:21:56Z</time>
      </trkpt>
      <trkpt lat="45.8006" lon="4.96188">
        <ele>56.86</ele>
        <time>2011-02-06T10:22:10Z</time>
      </trkpt>
      <trkpt lat="45.80047" lon="4.96174">
        <ele>56.86</ele>
        <time>2011-02-06T10:22:26Z</time>
      </trkpt>
      <trkpt lat="45.80036" lon="4.9615">
        <ele>58.78</ele>
        <time>2011-02-06T10:22:44Z</time>
      </trkpt>
      <trkpt lat="45.80036" lon="4.96142">
        <ele>58.78</ele>
        <time>2011-02-06T10:22:49Z</time>
      </trkpt>
      <trkpt lat="45.80029" lon="4.96117">
        <ele>58.78</ele>
        <time>2011-02-06T10:23:05Z</time>
      </trkpt>
      <trkpt lat="45.80019" lon="4.96108">
        <ele>57.82</ele>
        <time>2011-02-06T10:23:15Z</time>
      </trkpt>
      <trkpt lat="45.80005" lon="4.96093">
        <ele>56.37</ele>
        <time>2011-02-06T10:23:32Z</time>
      </trkpt>
      <trkpt lat="45.79998" lon="4.9609">
        <ele>55.89</ele>
        <time>2011-02-06T10:23:39Z</time>
      </trkpt>
      <trkpt lat="45.79979" lon="4.9611">
        <ele>55.41</ele>
        <time>2011-02-06T10:23:58Z</time>
      </trkpt>
      <trkpt lat="45.79966" lon="4.96123">
        <ele>56.37</ele>
        <time>2011-02-06T10:24:13Z</time>
      </trkpt>
      <trkpt lat="45.79965" lon="4.96126">
        <ele>56.86</ele>
        <time>2011-02-06T10:24:16Z</time>
      </trkpt>
      <trkpt lat="45.79964" lon="4.96137">
        <ele>57.82</ele>
        <time>2011-02-06T10:24:23Z</time>
      </trkpt>
      <trkpt lat="45.79972" lon="4.96169">
        <ele>59.26</ele>
        <time>2011-02-06T10:24:42Z</time>
      </trkpt>
      <trkpt lat="45.79974" lon="4.9619">
        <ele>61.18</ele>
        <time>2011-02-06T10:24:57Z</time>
      </trkpt>
      <trkpt lat="45.79973" lon="4.96199">
        <ele>61.18</ele>
        <time>2011-02-06T10:25:12Z</time>
      </trkpt>
      <trkpt lat="45.79974" lon="4.96199">
        <ele>61.18</ele>
        <time>2011-02-06T10:25:25Z</time>
      </trkpt>
      <trkpt lat="45.79973" lon="4.96194">
        <ele>61.18</ele>
        <time>2011-02-06T10:25:40Z</time>
      </trkpt>
      <trkpt lat="45.79973" lon="4.96197">
        <ele>61.18</ele>
        <time>2011-02-06T10:25:49Z</time>
      </trkpt>
      <trkpt lat="45.79973" lon="4.96199">
        <ele>60.22</ele>
        <time>2011-02-06T10:26:07Z</time>
      </trkpt>
      <trkpt lat="45.79973" lon="4.96199">
        <ele>60.7</ele>
        <time>2011-02-06T10:26:32Z</time>
      </trkpt>
      <trkpt lat="45.79973" lon="4.96198">
        <ele>61.18</ele>
        <time>2011-02-06T10:26:38Z</time>
      </trkpt>
      <trkpt lat="45.79974" lon="4.96189">
        <ele>60.7</ele>
        <time>2011-02-06T10:26:44Z</time>
      </trkpt>
      <trkpt lat="45.7997" lon="4.96168">
        <ele>58.78</ele>
        <time>2011-02-06T10:27:00Z</time>
      </trkpt>
      <trkpt lat="45.79965" lon="4.96147">
        <ele>58.3</ele>
        <time>2011-02-06T10:27:17Z</time>
      </trkpt>
      <trkpt lat="45.79961" lon="4.96134">
        <ele>57.34</ele>
        <time>2011-02-06T10:27:30Z</time>
      </trkpt>
      <trkpt lat="45.7996" lon="4.96132">
        <ele>57.34</ele>
        <time>2011-02-06T10:27:32Z</time>
      </trkpt>
      <trkpt lat="45.79952" lon="4.96122">
        <ele>57.34</ele>
        <time>2011-02-06T10:27:47Z</time>
      </trkpt>
      <trkpt lat="45.79947" lon="4.96116">
        <ele>56.86</ele>
        <time>2011-02-06T10:28:01Z</time>
      </trkpt>
      <trkpt lat="45.79943" lon="4.96109">
        <ele>56.86</ele>
        <time>2011-02-06T10:28:06Z</time>
      </trkpt>
      <trkpt lat="45.79924" lon="4.96088">
        <ele>56.86</ele>
        <time>2011-02-06T10:28:27Z</time>
      </trkpt>
      <trkpt lat="45.79908" lon="4.96084">
        <ele>57.34</ele>
        <time>2011-02-06T10:28:41Z</time>
      </trkpt>
      <trkpt lat="45.79894" lon="4.96094">
        <ele>56.86</ele>
        <time>2011-02-06T10:28:54Z</time>
      </trkpt>
      <trkpt lat="45.79884" lon="4.9611">
        <ele>57.34</ele>
        <time>2011-02-06T10:29:07Z</time>
      </trkpt>
      <trkpt lat="45.79881" lon="4.96124">
        <ele>57.82</ele>
        <time>2011-02-06T10:29:18Z</time>
      </trkpt>
      <trkpt lat="45.79877" lon="4.96132">
        <ele>58.78</ele>
        <time>2011-02-06T10:29:31Z</time>
      </trkpt>
      <trkpt lat="45.79872" lon="4.96151">
        <ele>59.26</ele>
        <time>2011-02-06T10:29:44Z</time>
      </trkpt>
      <trkpt lat="45.79869" lon="4.96156">
        <ele>59.26</ele>
        <time>2011-02-06T10:30:00Z</time>
      </trkpt>
      <trkpt lat="45.79868" lon="4.96158">
        <ele>59.26</ele>
        <time>2011-02-06T10:30:03Z</time>
      </trkpt>
      <trkpt lat="45.79871" lon="4.96192">
        <ele>59.74</ele>
        <time>2011-02-06T10:30:17Z</time>
      </trkpt>
      <trkpt lat="45.79871" lon="4.96195">
        <ele>59.26</ele>
        <time>2011-02-06T10:30:19Z</time>
      </trkpt>
      <trkpt lat="45.79874" lon="4.96212">
        <ele>59.74</ele>
        <time>2011-02-06T10:30:28Z</time>
      </trkpt>
      <trkpt lat="45.79874" lon="4.96231">
        <ele>59.74</ele>
        <time>2011-02-06T10:30:40Z</time>
      </trkpt>
      <trkpt lat="45.7987" lon="4.96234">
        <ele>59.74</ele>
        <time>2011-02-06T10:30:44Z</time>
      </trkpt>
      <trkpt lat="45.7985" lon="4.96243">
        <ele>59.26</ele>
        <time>2011-02-06T10:31:01Z</time>
      </trkpt>
      <trkpt lat="45.79831" lon="4.96257">
        <ele>59.26</ele>
        <time>2011-02-06T10:31:18Z</time>
      </trkpt>
      <trkpt lat="45.79814" lon="4.96274">
        <ele>59.26</ele>
        <time>2011-02-06T10:31:35Z</time>
      </trkpt>
      <trkpt lat="45.79805" lon="4.963">
        <ele>59.26</ele>
        <time>2011-02-06T10:31:52Z</time>
      </trkpt>
      <trkpt lat="45.79789" lon="4.96315">
        <ele>59.74</ele>
        <time>2011-02-06T10:32:10Z</time>
      </trkpt>
      <trkpt lat="45.79775" lon="4.96309">
        <ele>58.3</ele>
        <time>2011-02-06T10:32:27Z</time>
      </trkpt>
      <trkpt lat="45.79758" lon="4.96289">
        <ele>59.26</ele>
        <time>2011-02-06T10:32:44Z</time>
      </trkpt>
      <trkpt lat="45.79748" lon="4.9629">
        <ele>59.26</ele>
        <time>2011-02-06T10:32:54Z</time>
      </trkpt>
      <trkpt lat="45.79737" lon="4.96296">
        <ele>59.26</ele>
        <time>2011-02-06T10:33:06Z</time>
      </trkpt>
      <trkpt lat="45.79728" lon="4.96308">
        <ele>59.26</ele>
        <time>2011-02-06T10:33:15Z</time>
      </trkpt>
      <trkpt lat="45.79707" lon="4.96333">
        <ele>59.26</ele>
        <time>2011-02-06T10:33:32Z</time>
      </trkpt>
      <trkpt lat="45.79691" lon="4.96356">
        <ele>59.74</ele>
        <time>2011-02-06T10:33:49Z</time>
      </trkpt>
      <trkpt lat="45.79673" lon="4.96377">
        <ele>60.22</ele>
        <time>2011-02-06T10:34:07Z</time>
      </trkpt>
      <trkpt lat="45.79664" lon="4.96389">
        <ele>59.74</ele>
        <time>2011-02-06T10:34:22Z</time>
      </trkpt>
      <trkpt lat="45.79664" lon="4.96389">
        <ele>59.74</ele>
        <time>2011-02-06T10:34:42Z</time>
      </trkpt>
      <trkpt lat="45.79664" lon="4.96389">
        <ele>59.74</ele>
        <time>2011-02-06T10:35:12Z</time>
      </trkpt>
      <trkpt lat="45.79664" lon="4.96389">
        <ele>60.22</ele>
        <time>2011-02-06T10:35:39Z</time>
      </trkpt>
      <trkpt lat="45.79664" lon="4.96389">
        <ele>60.22</ele>
        <time>2011-02-06T10:36:09Z</time>
      </trkpt>
      <trkpt lat="45.79663" lon="4.96386">
        <ele>59.74</ele>
        <time>2011-02-06T10:36:25Z</time>
      </trkpt>
      <trkpt lat="45.79659" lon="4.96367">
        <ele>59.26</ele>
        <time>2011-02-06T10:36:39Z</time>
      </trkpt>
      <trkpt lat="45.79655" lon="4.96339">
        <ele>59.74</ele>
        <time>2011-02-06T10:36:54Z</time>
      </trkpt>
      <trkpt lat="45.79652" lon="4.96309">
        <ele>61.66</ele>
        <time>2011-02-06T10:37:10Z</time>
      </trkpt>
      <trkpt lat="45.79653" lon="4.96297">
        <ele>61.66</ele>
        <time>2011-02-06T10:37:20Z</time>
      </trkpt>
      <trkpt lat="45.79652" lon="4.96282">
        <ele>61.66</ele>
        <time>2011-02-06T10:37:29Z</time>
      </trkpt>
      <trkpt lat="45.79653" lon="4.96276">
        <ele>61.66</ele>
        <time>2011-02-06T10:37:34Z</time>
      </trkpt>
      <trkpt lat="45.79655" lon="4.96268">
        <ele>61.66</ele>
        <time>2011-02-06T10:37:50Z</time>
      </trkpt>
      <trkpt lat="45.79657" lon="4.96264">
        <ele>61.18</ele>
        <time>2011-02-06T10:37:53Z</time>
      </trkpt>
      <trkpt lat="45.79664" lon="4.96251">
        <ele>61.66</ele>
        <time>2011-02-06T10:38:01Z</time>
      </trkpt>
      <trkpt lat="45.79663" lon="4.96235">
        <ele>61.66</ele>
        <time>2011-02-06T10:38:11Z</time>
      </trkpt>
      <trkpt lat="45.7965" lon="4.96215">
        <ele>61.66</ele>
        <time>2011-02-06T10:38:28Z</time>
      </trkpt>
      <trkpt lat="45.7964" lon="4.96191">
        <ele>59.74</ele>
        <time>2011-02-06T10:38:45Z</time>
      </trkpt>
      <trkpt lat="45.79638" lon="4.96183">
        <ele>60.22</ele>
        <time>2011-02-06T10:38:51Z</time>
      </trkpt>
      <trkpt lat="45.79634" lon="4.9616">
        <ele>60.22</ele>
        <time>2011-02-06T10:39:07Z</time>
      </trkpt>
      <trkpt lat="45.79632" lon="4.96149">
        <ele>60.22</ele>
        <time>2011-02-06T10:39:25Z</time>
      </trkpt>
      <trkpt lat="45.79628" lon="4.96132">
        <ele>60.7</ele>
        <time>2011-02-06T10:39:37Z</time>
      </trkpt>
      <trkpt lat="45.79626" lon="4.96126">
        <ele>60.7</ele>
        <time>2011-02-06T10:39:41Z</time>
      </trkpt>
      <trkpt lat="45.7963" lon="4.96101">
        <ele>59.74</ele>
        <time>2011-02-06T10:39:56Z</time>
      </trkpt>
      <trkpt lat="45.79633" lon="4.96072">
        <ele>60.7</ele>
        <time>2011-02-06T10:40:13Z</time>
      </trkpt>
      <trkpt lat="45.79635" lon="4.9606">
        <ele>61.18</ele>
        <time>2011-02-06T10:40:28Z</time>
      </trkpt>
      <trkpt lat="45.79635" lon="4.96043">
        <ele>60.7</ele>
        <time>2011-02-06T10:40:42Z</time>
      </trkpt>
      <trkpt lat="45.7964" lon="4.96011">
        <ele>61.18</ele>
        <time>2011-02-06T10:41:00Z</time>
      </trkpt>
      <trkpt lat="45.79645" lon="4.9598">
        <ele>60.7</ele>
        <time>2011-02-06T10:41:17Z</time>
      </trkpt>
      <trkpt lat="45.7964" lon="4.95948">
        <ele>60.22</ele>
        <time>2011-02-06T10:41:36Z</time>
      </trkpt>
      <trkpt lat="45.79639" lon="4.95937">
        <ele>60.7</ele>
        <time>2011-02-06T10:41:43Z</time>
      </trkpt>
      <trkpt lat="45.79635" lon="4.95911">
        <ele>61.66</ele>
        <time>2011-02-06T10:42:00Z</time>
      </trkpt>
      <trkpt lat="45.79631" lon="4.95885">
        <ele>61.18</ele>
        <time>2011-02-06T10:42:16Z</time>
      </trkpt>
      <trkpt lat="45.79628" lon="4.9586">
        <ele>61.18</ele>
        <time>2011-02-06T10:42:33Z</time>
      </trkpt>
      <trkpt lat="45.79621" lon="4.95832">
        <ele>60.7</ele>
        <time>2011-02-06T10:42:51Z</time>
      </trkpt>
      <trkpt lat="45.7962" lon="4.95822">
        <ele>61.18</ele>
        <time>2011-02-06T10:43:03Z</time>
      </trkpt>
      <trkpt lat="45.79614" lon="4.95794">
        <ele>60.7</ele>
        <time>2011-02-06T10:43:21Z</time>
      </trkpt>
      <trkpt lat="45.79609" lon="4.95761">
        <ele>61.18</ele>
        <time>2011-02-06T10:43:41Z</time>
      </trkpt>
      <trkpt lat="45.79599" lon="4.95736">
        <ele>60.7</ele>
        <time>2011-02-06T10:43:58Z</time>
      </trkpt>
      <trkpt lat="45.79586" lon="4.95711">
        <ele>60.7</ele>
        <time>2011-02-06T10:44:17Z</time>
      </trkpt>
      <trkpt lat="45.79581" lon="4.95696">
        <ele>60.7</ele>
        <time>2011-02-06T10:44:28Z</time>
      </trkpt>
      <trkpt lat="45.79582" lon="4.95687">
        <ele>61.18</ele>
        <time>2011-02-06T10:44:43Z</time>
      </trkpt>
      <trkpt lat="45.79582" lon="4.95683">
        <ele>61.18</ele>
        <time>2011-02-06T10:44:58Z</time>
      </trkpt>
      <trkpt lat="45.79582" lon="4.95678">
        <ele>61.18</ele>
        <time>2011-02-06T10:45:08Z</time>
      </trkpt>
      <trkpt lat="45.79576" lon="4.95661">
        <ele>60.7</ele>
        <time>2011-02-06T10:45:19Z</time>
      </trkpt>
      <trkpt lat="45.79574" lon="4.95638">
        <ele>61.18</ele>
        <time>2011-02-06T10:45:36Z</time>
      </trkpt>
      <trkpt lat="45.79566" lon="4.95615">
        <ele>61.66</ele>
        <time>2011-02-06T10:45:52Z</time>
      </trkpt>
      <trkpt lat="45.7956" lon="4.95605">
        <ele>61.66</ele>
        <time>2011-02-06T10:46:07Z</time>
      </trkpt>
      <trkpt lat="45.7956" lon="4.95605">
        <ele>61.18</ele>
        <time>2011-02-06T10:46:29Z</time>
      </trkpt>
      <trkpt lat="45.79558" lon="4.95601">
        <ele>61.18</ele>
        <time>2011-02-06T10:46:33Z</time>
      </trkpt>
      <trkpt lat="45.79551" lon="4.95594">
        <ele>61.66</ele>
        <time>2011-02-06T10:46:39Z</time>
      </trkpt>
      <trkpt lat="45.7955" lon="4.95583">
        <ele>62.14</ele>
        <time>2011-02-06T10:46:43Z</time>
      </trkpt>
      <trkpt lat="45.79549" lon="4.95575">
        <ele>63.58</ele>
        <time>2011-02-06T10:46:46Z</time>
      </trkpt>
      <trkpt lat="45.79543" lon="4.95564">
        <ele>64.07</ele>
        <time>2011-02-06T10:46:58Z</time>
      </trkpt>
      <trkpt lat="45.7954" lon="4.95561">
        <ele>64.07</ele>
        <time>2011-02-06T10:47:02Z</time>
      </trkpt>
      <trkpt lat="45.79535" lon="4.95553">
        <ele>63.1</ele>
        <time>2011-02-06T10:47:09Z</time>
      </trkpt>
      <trkpt lat="45.79523" lon="4.95524">
        <ele>61.18</ele>
        <time>2011-02-06T10:47:25Z</time>
      </trkpt>
      <trkpt lat="45.79522" lon="4.95518">
        <ele>61.66</ele>
        <time>2011-02-06T10:47:28Z</time>
      </trkpt>
      <trkpt lat="45.79521" lon="4.95514">
        <ele>61.66</ele>
        <time>2011-02-06T10:47:30Z</time>
      </trkpt>
      <trkpt lat="45.7952" lon="4.95501">
        <ele>61.66</ele>
        <time>2011-02-06T10:47:37Z</time>
      </trkpt>
      <trkpt lat="45.79518" lon="4.95468">
        <ele>62.14</ele>
        <time>2011-02-06T10:47:54Z</time>
      </trkpt>
      <trkpt lat="45.79516" lon="4.95442">
        <ele>61.18</ele>
        <time>2011-02-06T10:48:11Z</time>
      </trkpt>
      <trkpt lat="45.79514" lon="4.95413">
        <ele>61.66</ele>
        <time>2011-02-06T10:48:29Z</time>
      </trkpt>
      <trkpt lat="45.79511" lon="4.95383">
        <ele>61.66</ele>
        <time>2011-02-06T10:48:47Z</time>
      </trkpt>
      <trkpt lat="45.7951" lon="4.95368">
        <ele>62.14</ele>
        <time>2011-02-06T10:49:03Z</time>
      </trkpt>
      <trkpt lat="45.79509" lon="4.95361">
        <ele>61.66</ele>
        <time>2011-02-06T10:49:23Z</time>
      </trkpt>
      <trkpt lat="45.79507" lon="4.95356">
        <ele>61.66</ele>
        <time>2011-02-06T10:49:27Z</time>
      </trkpt>
      <trkpt lat="45.79486" lon="4.95342">
        <ele>61.66</ele>
        <time>2011-02-06T10:49:48Z</time>
      </trkpt>
      <trkpt lat="45.79479" lon="4.95328">
        <ele>61.66</ele>
        <time>2011-02-06T10:49:59Z</time>
      </trkpt>
      <trkpt lat="45.79477" lon="4.9532">
        <ele>62.14</ele>
        <time>2011-02-06T10:50:05Z</time>
      </trkpt>
      <trkpt lat="45.79476" lon="4.95297">
        <ele>62.14</ele>
        <time>2011-02-06T10:50:20Z</time>
      </trkpt>
      <trkpt lat="45.79476" lon="4.95277">
        <ele>61.66</ele>
        <time>2011-02-06T10:50:34Z</time>
      </trkpt>
      <trkpt lat="45.79476" lon="4.95251">
        <ele>61.66</ele>
        <time>2011-02-06T10:50:49Z</time>
      </trkpt>
      <trkpt lat="45.79478" lon="4.95227">
        <ele>62.14</ele>
        <time>2011-02-06T10:51:02Z</time>
      </trkpt>
      <trkpt lat="45.79479" lon="4.95224">
        <ele>62.14</ele>
        <time>2011-02-06T10:51:04Z</time>
      </trkpt>
      <trkpt lat="45.7948" lon="4.95221">
        <ele>62.14</ele>
        <time>2011-02-06T10:51:06Z</time>
      </trkpt>
      <trkpt lat="45.79485" lon="4.95196">
        <ele>62.14</ele>
        <time>2011-02-06T10:51:23Z</time>
      </trkpt>
      <trkpt lat="45.79486" lon="4.95182">
        <ele>62.14</ele>
        <time>2011-02-06T10:51:32Z</time>
      </trkpt>
      <trkpt lat="45.79488" lon="4.95157">
        <ele>61.66</ele>
        <time>2011-02-06T10:51:48Z</time>
      </trkpt>
      <trkpt lat="45.7949" lon="4.95138">
        <ele>62.14</ele>
        <time>2011-02-06T10:52:01Z</time>
      </trkpt>
      <trkpt lat="45.79491" lon="4.95117">
        <ele>62.62</ele>
        <time>2011-02-06T10:52:18Z</time>
      </trkpt>
      <trkpt lat="45.79489" lon="4.95102">
        <ele>62.62</ele>
        <time>2011-02-06T10:52:31Z</time>
      </trkpt>
      <trkpt lat="45.79488" lon="4.95095">
        <ele>62.62</ele>
        <time>2011-02-06T10:52:35Z</time>
      </trkpt>
      <trkpt lat="45.79487" lon="4.95089">
        <ele>62.62</ele>
        <time>2011-02-06T10:52:38Z</time>
      </trkpt>
      <trkpt lat="45.7949" lon="4.95062">
        <ele>62.62</ele>
        <time>2011-02-06T10:52:53Z</time>
      </trkpt>
      <trkpt lat="45.79493" lon="4.9505">
        <ele>62.14</ele>
        <time>2011-02-06T10:53:02Z</time>
      </trkpt>
      <trkpt lat="45.79497" lon="4.95031">
        <ele>62.62</ele>
        <time>2011-02-06T10:53:19Z</time>
      </trkpt>
      <trkpt lat="45.79506" lon="4.95015">
        <ele>62.62</ele>
        <time>2011-02-06T10:53:33Z</time>
      </trkpt>
      <trkpt lat="45.79509" lon="4.95013">
        <ele>63.1</ele>
        <time>2011-02-06T10:53:36Z</time>
      </trkpt>
      <trkpt lat="45.79525" lon="4.95001">
        <ele>62.62</ele>
        <time>2011-02-06T10:53:52Z</time>
      </trkpt>
      <trkpt lat="45.79526" lon="4.95">
        <ele>62.62</ele>
        <time>2011-02-06T10:53:53Z</time>
      </trkpt>
      <trkpt lat="45.79546" lon="4.9498">
        <ele>61.66</ele>
        <time>2011-02-06T10:54:10Z</time>
      </trkpt>
      <trkpt lat="45.79562" lon="4.94966">
        <ele>61.18</ele>
        <time>2011-02-06T10:54:25Z</time>
      </trkpt>
      <trkpt lat="45.79578" lon="4.94956">
        <ele>61.66</ele>
        <time>2011-02-06T10:54:40Z</time>
      </trkpt>
      <trkpt lat="45.79586" lon="4.94949">
        <ele>61.18</ele>
        <time>2011-02-06T10:54:48Z</time>
      </trkpt>
      <trkpt lat="45.79586" lon="4.94944">
        <ele>60.22</ele>
        <time>2011-02-06T10:55:05Z</time>
      </trkpt>
      <trkpt lat="45.79586" lon="4.94942">
        <ele>61.18</ele>
        <time>2011-02-06T10:55:33Z</time>
      </trkpt>
      <trkpt lat="45.79586" lon="4.94941">
        <ele>60.7</ele>
        <time>2011-02-06T10:55:49Z</time>
      </trkpt>
      <trkpt lat="45.79584" lon="4.94934">
        <ele>61.18</ele>
        <time>2011-02-06T10:55:56Z</time>
      </trkpt>
      <trkpt lat="45.7958" lon="4.94918">
        <ele>62.14</ele>
        <time>2011-02-06T10:56:11Z</time>
      </trkpt>
      <trkpt lat="45.7958" lon="4.94918">
        <ele>61.66</ele>
        <time>2011-02-06T10:56:29Z</time>
      </trkpt>
      <trkpt lat="45.79589" lon="4.94905">
        <ele>62.14</ele>
        <time>2011-02-06T10:56:44Z</time>
      </trkpt>
      <trkpt lat="45.79605" lon="4.94885">
        <ele>62.14</ele>
        <time>2011-02-06T10:57:02Z</time>
      </trkpt>
      <trkpt lat="45.79619" lon="4.94863">
        <ele>62.14</ele>
        <time>2011-02-06T10:57:18Z</time>
      </trkpt>
      <trkpt lat="45.79634" lon="4.94838">
        <ele>62.14</ele>
        <time>2011-02-06T10:57:35Z</time>
      </trkpt>
      <trkpt lat="45.79648" lon="4.9482">
        <ele>61.66</ele>
        <time>2011-02-06T10:57:51Z</time>
      </trkpt>
      <trkpt lat="45.79664" lon="4.94799">
        <ele>62.14</ele>
        <time>2011-02-06T10:58:10Z</time>
      </trkpt>
      <trkpt lat="45.79678" lon="4.94785">
        <ele>62.62</ele>
        <time>2011-02-06T10:58:25Z</time>
      </trkpt>
      <trkpt lat="45.7969" lon="4.94765">
        <ele>62.62</ele>
        <time>2011-02-06T10:58:41Z</time>
      </trkpt>
      <trkpt lat="45.79701" lon="4.94754">
        <ele>62.62</ele>
        <time>2011-02-06T10:58:53Z</time>
      </trkpt>
      <trkpt lat="45.79713" lon="4.94731">
        <ele>62.62</ele>
        <time>2011-02-06T10:59:10Z</time>
      </trkpt>
      <trkpt lat="45.79726" lon="4.94711">
        <ele>62.14</ele>
        <time>2011-02-06T10:59:25Z</time>
      </trkpt>
      <trkpt lat="45.79739" lon="4.94692">
        <ele>62.14</ele>
        <time>2011-02-06T10:59:38Z</time>
      </trkpt>
      <trkpt lat="45.79746" lon="4.94683">
        <ele>62.62</ele>
        <time>2011-02-06T10:59:46Z</time>
      </trkpt>
      <trkpt lat="45.79759" lon="4.94663">
        <ele>62.62</ele>
        <time>2011-02-06T11:00:01Z</time>
      </trkpt>
      <trkpt lat="45.79773" lon="4.94642">
        <ele>62.62</ele>
        <time>2011-02-06T11:00:17Z</time>
      </trkpt>
      <trkpt lat="45.79783" lon="4.94627">
        <ele>63.1</ele>
        <time>2011-02-06T11:00:30Z</time>
      </trkpt>
      <trkpt lat="45.79783" lon="4.94625">
        <ele>63.1</ele>
        <time>2011-02-06T11:00:47Z</time>
      </trkpt>
      <trkpt lat="45.79783" lon="4.94625">
        <ele>63.1</ele>
        <time>2011-02-06T11:01:05Z</time>
      </trkpt>
      <trkpt lat="45.79785" lon="4.94617">
        <ele>63.1</ele>
        <time>2011-02-06T11:01:19Z</time>
      </trkpt>
      <trkpt lat="45.79788" lon="4.94612">
        <ele>63.1</ele>
        <time>2011-02-06T11:01:28Z</time>
      </trkpt>
      <trkpt lat="45.79791" lon="4.94602">
        <ele>63.58</ele>
        <time>2011-02-06T11:01:35Z</time>
      </trkpt>
      <trkpt lat="45.79792" lon="4.94597">
        <ele>63.1</ele>
        <time>2011-02-06T11:01:38Z</time>
      </trkpt>
      <trkpt lat="45.79795" lon="4.94585">
        <ele>63.58</ele>
        <time>2011-02-06T11:01:47Z</time>
      </trkpt>
      <trkpt lat="45.79795" lon="4.94581">
        <ele>63.1</ele>
        <time>2011-02-06T11:01:50Z</time>
      </trkpt>
      <trkpt lat="45.79802" lon="4.94563">
        <ele>64.07</ele>
        <time>2011-02-06T11:02:05Z</time>
      </trkpt>
      <trkpt lat="45.79807" lon="4.94549">
        <ele>64.55</ele>
        <time>2011-02-06T11:02:17Z</time>
      </trkpt>
      <trkpt lat="45.79812" lon="4.94536">
        <ele>64.55</ele>
        <time>2011-02-06T11:02:25Z</time>
      </trkpt>
      <trkpt lat="45.79824" lon="4.94529">
        <ele>66.47</ele>
        <time>2011-02-06T11:02:39Z</time>
      </trkpt>
      <trkpt lat="45.79824" lon="4.94529">
        <ele>66.95</ele>
        <time>2011-02-06T11:02:40Z</time>
      </trkpt>
      <trkpt lat="45.79823" lon="4.94525">
        <ele>66.95</ele>
        <time>2011-02-06T11:02:43Z</time>
      </trkpt>
      <trkpt lat="45.79819" lon="4.94514">
        <ele>66.95</ele>
        <time>2011-02-06T11:02:51Z</time>
      </trkpt>
      <trkpt lat="45.79818" lon="4.94507">
        <ele>66.95</ele>
        <time>2011-02-06T11:03:05Z</time>
      </trkpt>
      <trkpt lat="45.79814" lon="4.94492">
        <ele>66.95</ele>
        <time>2011-02-06T11:03:18Z</time>
      </trkpt>
      <trkpt lat="45.79813" lon="4.94463">
        <ele>66.47</ele>
        <time>2011-02-06T11:03:34Z</time>
      </trkpt>
      <trkpt lat="45.79812" lon="4.94437">
        <ele>66.47</ele>
        <time>2011-02-06T11:03:47Z</time>
      </trkpt>
      <trkpt lat="45.79811" lon="4.94413">
        <ele>66.95</ele>
        <time>2011-02-06T11:04:02Z</time>
      </trkpt>
      <trkpt lat="45.79806" lon="4.94376">
        <ele>66.47</ele>
        <time>2011-02-06T11:04:19Z</time>
      </trkpt>
      <trkpt lat="45.79808" lon="4.94347">
        <ele>66.95</ele>
        <time>2011-02-06T11:04:35Z</time>
      </trkpt>
      <trkpt lat="45.79806" lon="4.94322">
        <ele>67.43</ele>
        <time>2011-02-06T11:04:50Z</time>
      </trkpt>
      <trkpt lat="45.79807" lon="4.9432">
        <ele>67.43</ele>
        <time>2011-02-06T11:04:52Z</time>
      </trkpt>
      <trkpt lat="45.79806" lon="4.94294">
        <ele>67.91</ele>
        <time>2011-02-06T11:05:07Z</time>
      </trkpt>
      <trkpt lat="45.79808" lon="4.94279">
        <ele>67.91</ele>
        <time>2011-02-06T11:05:17Z</time>
      </trkpt>
      <trkpt lat="45.79805" lon="4.94255">
        <ele>67.43</ele>
        <time>2011-02-06T11:05:32Z</time>
      </trkpt>
      <trkpt lat="45.79808" lon="4.94227">
        <ele>67.43</ele>
        <time>2011-02-06T11:05:49Z</time>
      </trkpt>
      <trkpt lat="45.79808" lon="4.94219">
        <ele>67.43</ele>
        <time>2011-02-06T11:05:53Z</time>
      </trkpt>
      <trkpt lat="45.79822" lon="4.94205">
        <ele>67.43</ele>
        <time>2011-02-06T11:06:08Z</time>
      </trkpt>
      <trkpt lat="45.79833" lon="4.94202">
        <ele>67.43</ele>
        <time>2011-02-06T11:06:22Z</time>
      </trkpt>
      <trkpt lat="45.79834" lon="4.94201">
        <ele>67.91</ele>
        <time>2011-02-06T11:06:27Z</time>
      </trkpt>
      <trkpt lat="45.79842" lon="4.94187">
        <ele>67.43</ele>
        <time>2011-02-06T11:06:39Z</time>
      </trkpt>
      <trkpt lat="45.79845" lon="4.94163">
        <ele>67.91</ele>
        <time>2011-02-06T11:06:53Z</time>
      </trkpt>
      <trkpt lat="45.79853" lon="4.94131">
        <ele>67.91</ele>
        <time>2011-02-06T11:07:09Z</time>
      </trkpt>
      <trkpt lat="45.79865" lon="4.94103">
        <ele>67.91</ele>
        <time>2011-02-06T11:07:26Z</time>
      </trkpt>
      <trkpt lat="45.79866" lon="4.941">
        <ele>67.43</ele>
        <time>2011-02-06T11:07:28Z</time>
      </trkpt>
      <trkpt lat="45.7987" lon="4.94095">
        <ele>67.91</ele>
        <time>2011-02-06T11:07:33Z</time>
      </trkpt>
      <trkpt lat="45.79878" lon="4.94083">
        <ele>67.91</ele>
        <time>2011-02-06T11:07:47Z</time>
      </trkpt>
      <trkpt lat="45.79885" lon="4.94077">
        <ele>68.39</ele>
        <time>2011-02-06T11:08:03Z</time>
      </trkpt>
      <trkpt lat="45.79886" lon="4.94079">
        <ele>68.39</ele>
        <time>2011-02-06T11:08:18Z</time>
      </trkpt>
      <trkpt lat="45.79889" lon="4.94079">
        <ele>67.91</ele>
        <time>2011-02-06T11:08:37Z</time>
      </trkpt>
      <trkpt lat="45.79892" lon="4.94077">
        <ele>68.87</ele>
        <time>2011-02-06T11:08:40Z</time>
      </trkpt>
      <trkpt lat="45.79892" lon="4.94076">
        <ele>68.87</ele>
        <time>2011-02-06T11:09:03Z</time>
      </trkpt>
      <trkpt lat="45.79892" lon="4.94076">
        <ele>68.39</ele>
        <time>2011-02-06T11:09:25Z</time>
      </trkpt>
      <trkpt lat="45.79894" lon="4.9406">
        <ele>68.39</ele>
        <time>2011-02-06T11:09:43Z</time>
      </trkpt>
      <trkpt lat="45.79895" lon="4.94063">
        <ele>68.87</ele>
        <time>2011-02-06T11:10:00Z</time>
      </trkpt>
      <trkpt lat="45.79913" lon="4.94062">
        <ele>68.39</ele>
        <time>2011-02-06T11:10:13Z</time>
      </trkpt>
      <trkpt lat="45.79922" lon="4.94073">
        <ele>68.39</ele>
        <time>2011-02-06T11:10:21Z</time>
      </trkpt>
      <trkpt lat="45.7993" lon="4.94065">
        <ele>67.91</ele>
        <time>2011-02-06T11:10:28Z</time>
      </trkpt>
      <trkpt lat="45.7995" lon="4.94058">
        <ele>68.39</ele>
        <time>2011-02-06T11:10:45Z</time>
      </trkpt>
      <trkpt lat="45.79969" lon="4.94055">
        <ele>68.87</ele>
        <time>2011-02-06T11:11:01Z</time>
      </trkpt>
      <trkpt lat="45.79985" lon="4.94055">
        <ele>68.39</ele>
        <time>2011-02-06T11:11:15Z</time>
      </trkpt>
      <trkpt lat="45.79993" lon="4.94052">
        <ele>68.39</ele>
        <time>2011-02-06T11:11:29Z</time>
      </trkpt>
      <trkpt lat="45.79993" lon="4.94052">
        <ele>68.39</ele>
        <time>2011-02-06T11:11:54Z</time>
      </trkpt>
      <trkpt lat="45.79993" lon="4.94053">
        <ele>68.39</ele>
        <time>2011-02-06T11:12:10Z</time>
      </trkpt>
      <trkpt lat="45.79993" lon="4.94053">
        <ele>68.39</ele>
        <time>2011-02-06T11:12:32Z</time>
      </trkpt>
      <trkpt lat="45.79994" lon="4.94053">
        <ele>68.39</ele>
        <time>2011-02-06T11:12:45Z</time>
      </trkpt>
      <trkpt lat="45.79994" lon="4.94053">
        <ele>68.39</ele>
        <time>2011-02-06T11:13:18Z</time>
      </trkpt>
      <trkpt lat="45.79994" lon="4.94054">
        <ele>68.39</ele>
        <time>2011-02-06T11:13:42Z</time>
      </trkpt>
      <trkpt lat="45.79994" lon="4.94054">
        <ele>68.87</ele>
        <time>2011-02-06T11:14:06Z</time>
      </trkpt>
      <trkpt lat="45.79993" lon="4.94055">
        <ele>66.95</ele>
        <time>2011-02-06T11:14:23Z</time>
      </trkpt>
      <trkpt lat="45.79993" lon="4.94056">
        <ele>67.91</ele>
        <time>2011-02-06T11:14:24Z</time>
      </trkpt>
      <trkpt lat="45.79994" lon="4.94057">
        <ele>72.72</ele>
        <time>2011-02-06T11:14:30Z</time>
      </trkpt>
      <trkpt lat="45.79994" lon="4.94057">
        <ele>68.39</ele>
        <time>2011-02-06T11:14:31Z</time>
      </trkpt>
      <trkpt lat="45.79994" lon="4.94057">
        <ele>69.35</ele>
        <time>2011-02-06T11:14:44Z</time>
      </trkpt>
    </trkseg>
  </trk>
</gpx>